Time,TemperatureF,DewpointF,PressureIn,WindDirection,WindDirectionDegrees,WindSpeedMPH,WindSpeedGustMPH,Humidity,HourlyPrecipIn,Conditions,Clouds,dailyrainin,SolarRadiationWatts/m^2,SoftwareType,DateUTC
2013-07-18 00:01:00,76.9,74.7,30.07,SSE,162,0.0,0.0,93,0.00,,FEW,1.19,0.00,VWS V14.01,2013-07-18 04:01:00,
2013-07-18 00:06:00,76.9,74.7,30.07,SE,129,1.0,1.0,93,0.00,,FEW,0.00,0.00,VWS V14.01,2013-07-18 04:06:00,
2013-07-18 00:11:00,77.0,74.8,30.07,SE,129,0.0,1.0,93,0.00,,FEW,0.00,0.00,VWS V14.01,2013-07-18 04:11:00,
2013-07-18 00:12:00,77.1,74.9,30.07,SE,129,0.0,1.0,93,0.00,,FEW,0.00,0.00,VWS V14.01,2013-07-18 04:12:00,
2013-07-18 00:16:00,77.1,74.9,30.07,SE,129,0.0,0.0,93,0.00,,FEW,0.00,0.00,VWS V14.01,2013-07-18 04:16:00,
2013-07-18 00:17:00,77.1,74.9,30.07,SE,129,0.0,0.0,93,0.00,,FEW,0.00,0.00,VWS V14.01,2013-07-18 04:17:00,
2013-07-18 00:21:00,77.1,74.9,30.07,SE,129,0.0,1.0,93,0.00,,FEW,0.00,0.00,VWS V14.01,2013-07-18 04:21:00,
2013-07-18 00:22:00,77.1,74.9,30.07,SE,129,0.0,1.0,93,0.00,,FEW,0.00,0.00,VWS V14.01,2013-07-18 04:22:00,
2013-07-18 00:26:00,77.1,74.9,30.07,SE,132,3.0,3.0,93,0.00,,FEW,0.00,0.00,VWS V14.01,2013-07-18 04:26:00,
2013-07-18 00:27:00,77.1,75.2,30.07,SE,126,2.0,3.0,94,0.00,,FEW,0.00,0.00,VWS V14.01,2013-07-18 04:27:00,
2013-07-18 00:31:00,77.2,75.0,30.07,ESE,119,2.0,5.0,93,0.01,,FEW,0.01,0.00,VWS V14.01,2013-07-18 04:31:00,
2013-07-18 00:32:00,77.1,74.9,30.06,ESE,121,1.0,5.0,93,0.01,,FEW,0.01,0.00,VWS V14.01,2013-07-18 04:32:00,
2013-07-18 00:36:00,77.0,74.8,30.06,ESE,112,0.0,7.0,93,0.01,,FEW,0.01,0.00,VWS V14.01,2013-07-18 04:36:00,
2013-07-18 00:37:00,77.0,74.8,30.06,ESE,115,0.0,7.0,93,0.01,,FEW,0.01,0.00,VWS V14.01,2013-07-18 04:37:00,
2013-07-18 00:42:00,77.0,74.8,30.06,ESE,116,2.0,7.0,93,0.01,,FEW,0.01,0.00,VWS V14.01,2013-07-18 04:42:00,
2013-07-18 00:43:00,77.0,74.8,30.06,East,88,1.0,2.0,93,0.01,,FEW,0.01,0.00,VWS V14.01,2013-07-18 04:43:00,
2013-07-18 00:47:00,77.0,74.8,30.07,South,172,7.0,7.0,93,0.01,,FEW,0.01,0.00,VWS V14.01,2013-07-18 04:47:00,
2013-07-18 00:48:00,77.1,74.9,30.07,SSW,207,12.0,12.0,93,0.01,,FEW,0.01,0.00,VWS V14.01,2013-07-18 04:48:00,
2013-07-18 00:52:00,77.3,75.1,30.07,SSE,163,6.0,12.0,93,0.01,,FEW,0.01,0.00,VWS V14.01,2013-07-18 04:52:00,
2013-07-18 00:53:00,77.4,75.2,30.07,SSW,202,9.0,9.0,93,0.01,,FEW,0.01,0.00,VWS V14.01,2013-07-18 04:53:00,
2013-07-18 00:57:00,76.7,73.9,30.07,South,173,10.0,15.0,91,0.01,,FEW,0.01,0.00,VWS V14.01,2013-07-18 04:57:00,
2013-07-18 00:58:00,76.6,73.8,30.07,SW,230,9.0,15.0,91,0.01,,FEW,0.01,0.00,VWS V14.01,2013-07-18 04:58:00,
2013-07-18 01:02:00,76.1,73.3,30.07,South,171,5.0,5.0,91,0.01,,FEW,0.01,0.00,VWS V14.01,2013-07-18 05:02:00,
2013-07-18 01:03:00,76.1,73.3,30.07,South,188,6.0,9.0,91,0.01,,FEW,0.01,0.00,VWS V14.01,2013-07-18 05:03:00,
2013-07-18 01:07:00,76.0,73.5,30.07,SE,129,1.0,9.0,92,0.05,,FEW,0.05,0.00,VWS V14.01,2013-07-18 05:07:00,
2013-07-18 01:08:00,76.0,73.5,30.07,SSE,156,6.0,9.0,92,0.05,,FEW,0.05,0.00,VWS V14.01,2013-07-18 05:08:00,
2013-07-18 01:09:00,75.9,73.4,30.07,SE,142,2.0,9.0,92,0.07,,FEW,0.07,0.00,VWS V14.01,2013-07-18 05:09:00,
2013-07-18 01:12:00,75.9,73.4,30.07,SE,134,7.0,8.0,92,0.20,,FEW,0.20,0.00,VWS V14.01,2013-07-18 05:12:00,
2013-07-18 01:13:00,75.9,73.4,30.07,ESE,121,3.0,8.0,92,0.20,,FEW,0.20,0.00,VWS V14.01,2013-07-18 05:13:00,
2013-07-18 01:14:00,75.9,73.7,30.07,ESE,103,1.0,8.0,93,0.21,,FEW,0.22,0.00,VWS V14.01,2013-07-18 05:14:00,
2013-07-18 01:18:00,75.9,73.7,30.07,East,93,1.0,8.0,93,0.24,,FEW,0.24,0.00,VWS V14.01,2013-07-18 05:18:00,
2013-07-18 01:19:00,75.8,73.6,30.07,ENE,59,1.0,8.0,93,0.24,,FEW,0.24,0.00,VWS V14.01,2013-07-18 05:19:00,
2013-07-18 01:23:00,75.7,73.5,30.07,ENE,71,0.0,0.0,93,0.24,,FEW,0.24,0.00,VWS V14.01,2013-07-18 05:23:00,
2013-07-18 01:24:00,75.7,73.5,30.07,ENE,74,1.0,2.0,93,0.24,,FEW,0.24,0.00,VWS V14.01,2013-07-18 05:24:00,
2013-07-18 01:28:00,75.5,73.3,30.07,SE,132,1.0,2.0,93,0.25,,FEW,0.25,0.00,VWS V14.01,2013-07-18 05:28:00,
2013-07-18 01:29:00,75.5,73.3,30.07,SE,132,0.0,2.0,93,0.25,,FEW,0.25,0.00,VWS V14.01,2013-07-18 05:29:00,
2013-07-18 01:33:00,75.3,73.1,30.06,ESE,113,2.0,2.0,93,0.24,,FEW,0.25,0.00,VWS V14.01,2013-07-18 05:33:00,
2013-07-18 01:34:00,75.2,73.0,30.06,East,82,0.0,2.0,93,0.24,,FEW,0.25,0.00,VWS V14.01,2013-07-18 05:34:00,
2013-07-18 01:35:00,75.1,72.9,30.06,East,82,1.0,2.0,93,0.24,,FEW,0.25,0.00,VWS V14.01,2013-07-18 05:35:00,
2013-07-18 01:38:00,75.0,72.8,30.06,East,82,1.0,2.0,93,0.24,,FEW,0.25,0.00,VWS V14.01,2013-07-18 05:38:00,
2013-07-18 01:39:00,75.0,72.8,30.06,East,82,0.0,2.0,93,0.24,,FEW,0.25,0.00,VWS V14.01,2013-07-18 05:39:00,
2013-07-18 01:40:00,74.9,72.7,30.06,East,82,0.0,2.0,93,0.24,,FEW,0.25,0.00,VWS V14.01,2013-07-18 05:40:00,
2013-07-18 01:43:00,74.9,72.7,30.06,East,82,0.0,1.0,93,0.24,,FEW,0.25,0.00,VWS V14.01,2013-07-18 05:43:00,
2013-07-18 01:44:00,74.8,72.6,30.06,East,82,0.0,1.0,93,0.24,,FEW,0.25,0.00,VWS V14.01,2013-07-18 05:44:00,
2013-07-18 01:45:00,74.8,72.6,30.06,East,82,0.0,1.0,93,0.24,,FEW,0.25,0.00,VWS V14.01,2013-07-18 05:45:00,
2013-07-18 01:48:00,74.8,72.6,30.05,East,82,0.0,1.0,93,0.24,,FEW,0.25,0.00,VWS V14.01,2013-07-18 05:48:00,
2013-07-18 01:49:00,74.8,72.6,30.05,East,82,0.0,1.0,93,0.24,,FEW,0.25,0.00,VWS V14.01,2013-07-18 05:49:00,
2013-07-18 01:50:00,74.8,72.6,30.05,East,82,0.0,1.0,93,0.24,,FEW,0.25,0.00,VWS V14.01,2013-07-18 05:50:00,
2013-07-18 01:53:00,74.7,72.6,30.05,East,82,0.0,1.0,93,0.24,,FEW,0.25,0.00,VWS V14.01,2013-07-18 05:53:00,
2013-07-18 01:54:00,74.7,72.6,30.05,East,82,0.0,1.0,93,0.24,,FEW,0.25,0.00,VWS V14.01,2013-07-18 05:54:00,
2013-07-18 01:56:00,74.7,72.6,30.05,East,82,0.0,1.0,93,0.24,,FEW,0.25,0.00,VWS V14.01,2013-07-18 05:56:00,
2013-07-18 01:58:00,74.7,72.6,30.05,East,82,0.0,1.0,93,0.24,,FEW,0.25,0.00,VWS V14.01,2013-07-18 05:58:00,
2013-07-18 01:59:00,74.7,72.6,30.05,East,82,0.0,1.0,93,0.24,,FEW,0.25,0.00,VWS V14.01,2013-07-18 05:59:00,
2013-07-18 02:01:00,74.7,72.9,30.05,East,82,0.0,1.0,94,0.24,,FEW,0.25,0.00,VWS V14.01,2013-07-18 06:01:00,
2013-07-18 02:03:00,74.7,72.9,30.05,East,82,0.0,0.0,94,0.24,,FEW,0.25,0.00,VWS V14.01,2013-07-18 06:03:00,
2013-07-18 02:04:00,74.7,72.9,30.05,East,82,0.0,0.0,94,0.24,,FEW,0.25,0.00,VWS V14.01,2013-07-18 06:04:00,
2013-07-18 02:06:00,74.7,72.9,30.05,East,82,0.0,0.0,94,0.24,,FEW,0.25,0.00,VWS V14.01,2013-07-18 06:06:00,
2013-07-18 02:08:00,74.7,72.9,30.05,East,82,0.0,0.0,94,0.24,,FEW,0.25,0.00,VWS V14.01,2013-07-18 06:08:00,
2013-07-18 02:09:00,74.8,73.0,30.05,East,82,0.0,1.0,94,0.24,,FEW,0.25,0.00,VWS V14.01,2013-07-18 06:09:00,
2013-07-18 02:11:00,74.8,73.0,30.05,East,82,0.0,1.0,94,0.24,,FEW,0.25,0.00,VWS V14.01,2013-07-18 06:11:00,
2013-07-18 02:13:00,74.7,72.9,30.05,East,82,0.0,0.0,94,0.06,,FEW,0.25,0.00,VWS V14.01,2013-07-18 06:13:00,
2013-07-18 02:14:00,74.8,73.0,30.05,East,82,0.0,0.0,94,0.06,,FEW,0.25,0.00,VWS V14.01,2013-07-18 06:14:00,
2013-07-18 02:15:00,74.7,72.9,30.05,East,82,0.0,0.0,94,0.06,,FEW,0.25,0.00,VWS V14.01,2013-07-18 06:15:00,
2013-07-18 02:16:00,74.8,73.0,30.04,East,82,0.0,1.0,94,0.06,,FEW,0.25,0.00,VWS V14.01,2013-07-18 06:16:00,
2013-07-18 02:18:00,74.7,72.9,30.04,East,82,0.0,1.0,94,0.06,,FEW,0.25,0.00,VWS V14.01,2013-07-18 06:18:00,
2013-07-18 02:19:00,74.8,73.0,30.04,East,82,0.0,1.0,94,0.06,,FEW,0.25,0.00,VWS V14.01,2013-07-18 06:19:00,
2013-07-18 02:20:00,74.8,73.0,30.04,East,82,0.0,1.0,94,0.06,,FEW,0.25,0.00,VWS V14.01,2013-07-18 06:20:00,
2013-07-18 02:21:00,74.8,73.0,30.04,East,82,0.0,1.0,94,0.06,,FEW,0.25,0.00,VWS V14.01,2013-07-18 06:21:00,
2013-07-18 02:24:00,74.7,72.9,30.04,East,82,1.0,2.0,94,0.01,,FEW,0.25,0.00,VWS V14.01,2013-07-18 06:24:00,
2013-07-18 02:25:00,74.7,72.9,30.04,ENE,75,1.0,3.0,94,0.01,,FEW,0.25,0.00,VWS V14.01,2013-07-18 06:25:00,
2013-07-18 02:26:00,74.7,72.9,30.04,NNE,28,0.0,3.0,94,0.01,,FEW,0.25,0.00,VWS V14.01,2013-07-18 06:26:00,
2013-07-18 02:30:00,74.7,72.9,30.04,NNE,28,0.0,3.0,94,0.01,,FEW,0.25,0.00,VWS V14.01,2013-07-18 06:30:00,
2013-07-18 02:31:00,74.7,72.9,30.04,NNE,28,1.0,3.0,94,0.01,,FEW,0.25,0.00,VWS V14.01,2013-07-18 06:31:00,
2013-07-18 02:35:00,74.7,72.9,30.04,NNE,28,0.0,0.0,94,0.01,,FEW,0.26,0.00,VWS V14.01,2013-07-18 06:35:00,
2013-07-18 02:36:00,74.7,72.9,30.04,NNE,28,0.0,0.0,94,0.01,,FEW,0.26,0.00,VWS V14.01,2013-07-18 06:36:00,
2013-07-18 02:40:00,74.6,72.8,30.04,NNE,28,0.0,0.0,94,0.01,,FEW,0.26,0.00,VWS V14.01,2013-07-18 06:40:00,
2013-07-18 02:41:00,74.6,72.8,30.04,NNE,28,0.0,0.0,94,0.01,,FEW,0.26,0.00,VWS V14.01,2013-07-18 06:41:00,
2013-07-18 02:45:00,74.6,72.8,30.04,NNE,28,0.0,0.0,94,0.01,,FEW,0.26,0.00,VWS V14.01,2013-07-18 06:45:00,
2013-07-18 02:46:00,74.6,72.8,30.04,NNE,28,0.0,0.0,94,0.01,,FEW,0.26,0.00,VWS V14.01,2013-07-18 06:46:00,
2013-07-18 02:50:00,74.6,72.8,30.03,NE,37,0.0,3.0,94,0.02,,FEW,0.27,0.00,VWS V14.01,2013-07-18 06:50:00,
2013-07-18 02:51:00,74.6,72.8,30.03,NE,37,1.0,3.0,94,0.02,,FEW,0.27,0.00,VWS V14.01,2013-07-18 06:51:00,
2013-07-18 02:52:00,74.6,72.8,30.03,NE,37,0.0,3.0,94,0.02,,FEW,0.27,0.00,VWS V14.01,2013-07-18 06:52:00,
2013-07-18 02:55:00,74.7,72.9,30.03,NE,37,0.0,2.0,94,0.02,,FEW,0.27,0.00,VWS V14.01,2013-07-18 06:55:00,
2013-07-18 02:56:00,74.7,72.9,30.03,NE,37,1.0,2.0,94,0.02,,FEW,0.27,0.00,VWS V14.01,2013-07-18 06:56:00,
2013-07-18 02:57:00,74.7,72.9,30.03,NE,37,1.0,2.0,94,0.02,,FEW,0.27,0.00,VWS V14.01,2013-07-18 06:57:00,
2013-07-18 03:00:00,74.8,73.3,30.03,NE,37,0.0,2.0,95,0.02,,FEW,0.27,0.00,VWS V14.01,2013-07-18 07:00:00,
2013-07-18 03:01:00,74.8,73.3,30.03,NE,37,1.0,2.0,95,0.02,,FEW,0.27,0.00,VWS V14.01,2013-07-18 07:01:00,
2013-07-18 03:02:00,74.8,73.3,30.03,NE,37,0.0,2.0,95,0.02,,FEW,0.27,0.00,VWS V14.01,2013-07-18 07:02:00,
2013-07-18 03:05:00,74.8,73.3,30.03,NE,37,1.0,2.0,95,0.02,,FEW,0.27,0.00,VWS V14.01,2013-07-18 07:05:00,
2013-07-18 03:06:00,74.8,73.3,30.03,NE,37,0.0,2.0,95,0.02,,FEW,0.27,0.00,VWS V14.01,2013-07-18 07:06:00,
2013-07-18 03:07:00,74.8,73.3,30.03,NE,37,0.0,2.0,95,0.02,,FEW,0.27,0.00,VWS V14.01,2013-07-18 07:07:00,
2013-07-18 03:08:00,74.8,73.3,30.03,NE,37,0.0,2.0,95,0.02,,FEW,0.27,0.00,VWS V14.01,2013-07-18 07:08:00,
2013-07-18 03:11:00,74.8,73.3,30.03,NE,37,0.0,2.0,95,0.03,,FEW,0.28,0.00,VWS V14.01,2013-07-18 07:11:00,
2013-07-18 03:12:00,74.8,73.3,30.03,NE,37,0.0,2.0,95,0.03,,FEW,0.28,0.00,VWS V14.01,2013-07-18 07:12:00,
2013-07-18 03:13:00,74.8,73.3,30.03,NE,37,0.0,1.0,95,0.03,,FEW,0.28,0.00,VWS V14.01,2013-07-18 07:13:00,
2013-07-18 03:16:00,74.9,73.4,30.03,NE,37,0.0,2.0,95,0.03,,FEW,0.28,0.00,VWS V14.01,2013-07-18 07:16:00,
2013-07-18 03:17:00,74.9,73.4,30.03,NE,37,1.0,2.0,95,0.03,,FEW,0.28,0.00,VWS V14.01,2013-07-18 07:17:00,
2013-07-18 03:18:00,74.9,73.4,30.03,NE,37,0.0,2.0,95,0.03,,FEW,0.28,0.00,VWS V14.01,2013-07-18 07:18:00,
2013-07-18 03:21:00,75.0,73.5,30.03,NE,37,0.0,2.0,95,0.03,,FEW,0.28,0.00,VWS V14.01,2013-07-18 07:21:00,
2013-07-18 03:22:00,75.0,73.5,30.03,NE,37,0.0,2.0,95,0.03,,FEW,0.28,0.00,VWS V14.01,2013-07-18 07:22:00,
2013-07-18 03:23:00,75.0,73.5,30.03,NE,37,0.0,0.0,95,0.03,,FEW,0.28,0.00,VWS V14.01,2013-07-18 07:23:00,
2013-07-18 03:26:00,75.0,73.5,30.03,NE,37,0.0,0.0,95,0.03,,FEW,0.28,0.00,VWS V14.01,2013-07-18 07:26:00,
2013-07-18 03:27:00,75.0,73.5,30.03,NE,37,0.0,0.0,95,0.03,,FEW,0.28,0.00,VWS V14.01,2013-07-18 07:27:00,
2013-07-18 03:28:00,75.0,73.5,30.03,NE,37,0.0,0.0,95,0.03,,FEW,0.28,0.00,VWS V14.01,2013-07-18 07:28:00,
2013-07-18 03:31:00,75.1,73.6,30.02,NE,37,0.0,0.0,95,0.03,,FEW,0.28,0.00,VWS V14.01,2013-07-18 07:31:00,
2013-07-18 03:32:00,75.0,73.5,30.02,NE,37,0.0,0.0,95,0.03,,FEW,0.28,0.00,VWS V14.01,2013-07-18 07:32:00,
2013-07-18 03:33:00,75.1,73.6,30.02,NE,37,0.0,0.0,95,0.03,,FEW,0.28,0.00,VWS V14.01,2013-07-18 07:33:00,
2013-07-18 03:36:00,75.0,73.5,30.02,NE,37,0.0,0.0,95,0.03,,FEW,0.28,0.00,VWS V14.01,2013-07-18 07:36:00,
2013-07-18 03:37:00,75.0,73.5,30.02,NE,37,0.0,0.0,95,0.03,,FEW,0.28,0.00,VWS V14.01,2013-07-18 07:37:00,
2013-07-18 03:38:00,75.0,73.5,30.02,NE,37,0.0,0.0,95,0.03,,FEW,0.28,0.00,VWS V14.01,2013-07-18 07:38:00,
2013-07-18 03:39:00,75.0,73.5,30.02,NE,37,0.0,0.0,95,0.03,,FEW,0.28,0.00,VWS V14.01,2013-07-18 07:39:00,
2013-07-18 03:41:00,75.0,73.5,30.02,NE,37,0.0,0.0,95,0.03,,FEW,0.28,0.00,VWS V14.01,2013-07-18 07:41:00,
2013-07-18 03:42:00,75.0,73.5,30.02,NE,37,0.0,0.0,95,0.02,,FEW,0.28,0.00,VWS V14.01,2013-07-18 07:42:00,
2013-07-18 03:43:00,75.0,73.5,30.02,NE,37,0.0,0.0,95,0.02,,FEW,0.28,0.00,VWS V14.01,2013-07-18 07:43:00,
2013-07-18 03:44:00,75.0,73.5,30.02,NE,37,0.0,0.0,95,0.02,,FEW,0.28,0.00,VWS V14.01,2013-07-18 07:44:00,
2013-07-18 03:47:00,75.1,73.6,30.02,NE,37,0.0,0.0,95,0.02,,FEW,0.28,0.00,VWS V14.01,2013-07-18 07:47:00,
2013-07-18 03:48:00,75.1,73.6,30.02,NE,37,0.0,1.0,95,0.02,,FEW,0.28,0.00,VWS V14.01,2013-07-18 07:48:00,
2013-07-18 03:49:00,75.1,73.6,30.02,NE,37,0.0,1.0,95,0.02,,FEW,0.28,0.00,VWS V14.01,2013-07-18 07:49:00,
2013-07-18 03:52:00,75.2,73.7,30.02,NE,37,0.0,1.0,95,0.02,,FEW,0.28,0.00,VWS V14.01,2013-07-18 07:52:00,
2013-07-18 03:53:00,75.2,73.7,30.02,NE,37,0.0,0.0,95,0.01,,FEW,0.28,0.00,VWS V14.01,2013-07-18 07:53:00,
2013-07-18 03:54:00,75.2,73.7,30.02,NE,37,0.0,0.0,95,0.01,,FEW,0.28,0.00,VWS V14.01,2013-07-18 07:54:00,
2013-07-18 03:57:00,75.3,73.8,30.02,NE,37,0.0,0.0,95,0.01,,FEW,0.28,0.00,VWS V14.01,2013-07-18 07:57:00,
2013-07-18 03:58:00,75.3,73.8,30.02,NE,37,0.0,0.0,95,0.01,,FEW,0.28,0.00,VWS V14.01,2013-07-18 07:58:00,
2013-07-18 03:59:00,75.3,73.8,30.02,NE,37,0.0,0.0,95,0.01,,FEW,0.28,0.00,VWS V14.01,2013-07-18 07:59:00,
2013-07-18 04:02:00,75.3,73.8,30.02,NE,37,0.0,0.0,95,0.01,,FEW,0.28,0.00,VWS V14.01,2013-07-18 08:02:00,
2013-07-18 04:03:00,75.3,73.8,30.02,NE,37,0.0,0.0,95,0.01,,FEW,0.28,0.00,VWS V14.01,2013-07-18 08:03:00,
2013-07-18 04:04:00,75.3,73.8,30.02,NE,37,0.0,0.0,95,0.01,,FEW,0.28,0.00,VWS V14.01,2013-07-18 08:04:00,
2013-07-18 04:07:00,75.3,73.8,30.02,NE,37,0.0,1.0,95,0.01,,FEW,0.28,0.00,VWS V14.01,2013-07-18 08:07:00,
2013-07-18 04:08:00,75.4,73.9,30.02,NE,37,0.0,1.0,95,0.01,,FEW,0.28,0.00,VWS V14.01,2013-07-18 08:08:00,
2013-07-18 04:09:00,75.4,73.9,30.02,NE,37,0.0,1.0,95,0.01,,FEW,0.28,0.00,VWS V14.01,2013-07-18 08:09:00,
2013-07-18 04:12:00,75.5,74.0,30.02,NE,37,0.0,1.0,95,0.00,,FEW,0.28,0.00,VWS V14.01,2013-07-18 08:12:00,
2013-07-18 04:13:00,75.6,74.1,30.02,NE,37,0.0,1.0,95,0.00,,FEW,0.28,0.00,VWS V14.01,2013-07-18 08:13:00,
2013-07-18 04:14:00,75.6,74.1,30.02,NE,37,0.0,1.0,95,0.00,,FEW,0.28,0.00,VWS V14.01,2013-07-18 08:14:00,
2013-07-18 04:18:00,75.6,74.4,30.01,NE,37,0.0,1.0,96,0.00,,FEW,0.28,0.00,VWS V14.01,2013-07-18 08:18:00,
2013-07-18 04:19:00,75.7,74.5,30.01,NE,37,1.0,1.0,96,0.00,,FEW,0.28,0.00,VWS V14.01,2013-07-18 08:19:00,
2013-07-18 04:20:00,75.7,74.5,30.01,NE,37,0.0,1.0,96,0.00,,FEW,0.28,0.00,VWS V14.01,2013-07-18 08:20:00,
2013-07-18 04:23:00,75.8,74.6,30.01,NE,37,0.0,1.0,96,0.00,,FEW,0.28,0.00,VWS V14.01,2013-07-18 08:23:00,
2013-07-18 04:24:00,75.8,74.6,30.01,NE,37,0.0,1.0,96,0.00,,FEW,0.28,0.00,VWS V14.01,2013-07-18 08:24:00,
2013-07-18 04:25:00,75.8,74.6,30.01,NE,37,1.0,1.0,96,0.00,,FEW,0.28,0.00,VWS V14.01,2013-07-18 08:25:00,
2013-07-18 04:28:00,75.9,74.7,30.01,NE,37,0.0,1.0,96,0.00,,FEW,0.28,0.00,VWS V14.01,2013-07-18 08:28:00,
2013-07-18 04:29:00,76.0,74.8,30.01,NE,37,0.0,1.0,96,0.00,,FEW,0.28,0.00,VWS V14.01,2013-07-18 08:29:00,
2013-07-18 04:30:00,76.0,74.8,30.01,NE,37,0.0,1.0,96,0.00,,FEW,0.28,0.00,VWS V14.01,2013-07-18 08:30:00,
2013-07-18 04:33:00,76.0,74.8,30.02,NE,37,0.0,0.0,96,0.00,,FEW,0.28,0.00,VWS V14.01,2013-07-18 08:33:00,
2013-07-18 04:34:00,76.0,74.8,30.02,NE,37,0.0,1.0,96,0.00,,FEW,0.28,0.00,VWS V14.01,2013-07-18 08:34:00,
2013-07-18 04:35:00,76.0,74.8,30.02,NE,37,0.0,1.0,96,0.00,,FEW,0.28,0.00,VWS V14.01,2013-07-18 08:35:00,
2013-07-18 04:38:00,76.2,75.0,30.02,NE,37,0.0,1.0,96,0.00,,FEW,0.28,0.00,VWS V14.01,2013-07-18 08:38:00,
2013-07-18 04:39:00,76.2,75.0,30.02,NE,37,0.0,1.0,96,0.00,,FEW,0.28,0.00,VWS V14.01,2013-07-18 08:39:00,
2013-07-18 04:40:00,76.2,75.0,30.02,NE,37,0.0,1.0,96,0.00,,FEW,0.28,0.00,VWS V14.01,2013-07-18 08:40:00,
2013-07-18 04:43:00,76.3,75.1,30.02,NE,37,0.0,0.0,96,0.00,,FEW,0.28,0.00,VWS V14.01,2013-07-18 08:43:00,
2013-07-18 04:44:00,76.2,75.0,30.02,NE,37,0.0,0.0,96,0.00,,FEW,0.28,0.00,VWS V14.01,2013-07-18 08:44:00,
2013-07-18 04:45:00,76.2,75.0,30.02,NE,37,0.0,0.0,96,0.00,,FEW,0.28,0.00,VWS V14.01,2013-07-18 08:45:00,
2013-07-18 04:48:00,76.3,75.1,30.02,NE,37,0.0,0.0,96,0.00,,FEW,0.28,0.00,VWS V14.01,2013-07-18 08:48:00,
2013-07-18 04:49:00,76.3,75.1,30.02,NE,37,0.0,0.0,96,0.00,,FEW,0.28,0.00,VWS V14.01,2013-07-18 08:49:00,
2013-07-18 04:50:00,76.3,75.1,30.02,NE,37,0.0,0.0,96,0.00,,FEW,0.28,0.00,VWS V14.01,2013-07-18 08:50:00,
2013-07-18 04:53:00,76.4,75.2,30.02,NE,37,0.0,0.0,96,0.00,,FEW,0.28,0.00,VWS V14.01,2013-07-18 08:53:00,
2013-07-18 04:54:00,76.4,75.2,30.02,NE,37,0.0,1.0,96,0.00,,FEW,0.28,0.00,VWS V14.01,2013-07-18 08:54:00,
2013-07-18 04:55:00,76.4,75.2,30.02,NE,37,0.0,1.0,96,0.00,,FEW,0.28,0.00,VWS V14.01,2013-07-18 08:55:00,
2013-07-18 04:56:00,76.4,75.2,30.02,NE,37,0.0,1.0,96,0.00,,FEW,0.28,0.00,VWS V14.01,2013-07-18 08:56:00,
2013-07-18 04:59:00,76.6,75.4,30.02,SE,142,0.0,2.0,96,0.00,,FEW,0.28,0.00,VWS V14.01,2013-07-18 08:59:00,
2013-07-18 05:00:00,76.6,75.4,30.02,SE,142,0.0,2.0,96,0.00,,FEW,0.28,0.00,VWS V14.01,2013-07-18 09:00:00,
2013-07-18 05:01:00,76.7,75.5,30.02,ESE,117,1.0,3.0,96,0.00,,FEW,0.28,0.00,VWS V14.01,2013-07-18 09:01:00,
2013-07-18 05:04:00,76.9,75.7,30.02,SE,143,1.0,4.0,96,0.00,,FEW,0.28,0.00,VWS V14.01,2013-07-18 09:04:00,
2013-07-18 05:05:00,76.9,75.7,30.02,SE,126,3.0,4.0,96,0.00,,FEW,0.28,0.00,VWS V14.01,2013-07-18 09:05:00,
2013-07-18 05:06:00,77.0,75.8,30.02,SE,128,1.0,4.0,96,0.00,,FEW,0.28,0.00,VWS V14.01,2013-07-18 09:06:00,
2013-07-18 05:09:00,77.1,75.9,30.02,SE,141,3.0,4.0,96,0.00,,FEW,0.28,0.00,VWS V14.01,2013-07-18 09:09:00,
2013-07-18 05:10:00,77.1,75.9,30.02,SE,144,4.0,5.0,96,0.00,,FEW,0.28,0.00,VWS V14.01,2013-07-18 09:10:00,
2013-07-18 05:11:00,77.2,76.0,30.02,SE,134,4.0,5.0,96,0.00,,FEW,0.28,0.00,VWS V14.01,2013-07-18 09:11:00,
2013-07-18 05:14:00,77.2,76.0,30.02,SE,134,1.0,4.0,96,0.00,,FEW,0.28,0.00,VWS V14.01,2013-07-18 09:14:00,
2013-07-18 05:15:00,77.2,76.0,30.02,SSE,148,1.0,4.0,96,0.00,,FEW,0.28,0.00,VWS V14.01,2013-07-18 09:15:00,
2013-07-18 05:16:00,77.3,76.1,30.02,SSE,151,4.0,4.0,96,0.00,,FEW,0.28,0.00,VWS V14.01,2013-07-18 09:16:00,
2013-07-18 05:19:00,77.4,76.2,30.02,SE,129,1.0,4.0,96,0.00,,FEW,0.28,0.00,VWS V14.01,2013-07-18 09:19:00,
2013-07-18 05:20:00,77.4,76.2,30.02,SE,136,1.0,4.0,96,0.00,,FEW,0.28,0.00,VWS V14.01,2013-07-18 09:20:00,
2013-07-18 05:21:00,77.5,76.3,30.02,ESE,117,4.0,4.0,96,0.00,,FEW,0.28,0.00,VWS V14.01,2013-07-18 09:21:00,
2013-07-18 05:24:00,77.5,76.3,30.02,SE,144,1.0,5.0,96,0.00,,FEW,0.28,0.00,VWS V14.01,2013-07-18 09:24:00,
2013-07-18 05:25:00,77.5,76.3,30.02,SE,146,2.0,5.0,96,0.00,,FEW,0.28,0.00,VWS V14.01,2013-07-18 09:25:00,
2013-07-18 05:26:00,77.5,76.3,30.02,ESE,119,2.0,5.0,96,0.00,,FEW,0.28,0.00,VWS V14.01,2013-07-18 09:26:00,
2013-07-18 05:29:00,77.5,76.3,30.02,SE,132,1.0,5.0,96,0.00,,FEW,0.28,0.00,VWS V14.01,2013-07-18 09:29:00,
2013-07-18 05:31:00,77.5,76.3,30.02,South,172,3.0,5.0,96,0.00,,FEW,0.28,0.00,VWS V14.01,2013-07-18 09:31:00,
2013-07-18 05:34:00,77.5,76.3,30.02,SE,143,4.0,4.0,96,0.00,,FEW,0.28,0.00,VWS V14.01,2013-07-18 09:34:00,
2013-07-18 05:35:00,77.5,76.3,30.02,SE,143,0.0,4.0,96,0.00,,FEW,0.28,0.00,VWS V14.01,2013-07-18 09:35:00,
2013-07-18 05:36:00,77.6,76.4,30.02,ESE,122,0.0,4.0,96,0.00,,FEW,0.28,0.00,VWS V14.01,2013-07-18 09:36:00,
2013-07-18 05:37:00,77.6,76.4,30.02,ESE,123,1.0,4.0,96,0.00,,FEW,0.28,0.00,VWS V14.01,2013-07-18 09:37:00,
2013-07-18 05:39:00,77.6,76.4,30.02,SE,126,0.0,4.0,96,0.00,,FEW,0.28,0.00,VWS V14.01,2013-07-18 09:39:00,
2013-07-18 05:40:00,77.6,76.4,30.02,ESE,102,1.0,4.0,96,0.00,,FEW,0.28,0.00,VWS V14.01,2013-07-18 09:40:00,
2013-07-18 05:41:00,77.7,76.5,30.02,ESE,102,0.0,4.0,96,0.00,,FEW,0.28,0.00,VWS V14.01,2013-07-18 09:41:00,
2013-07-18 05:42:00,77.6,76.4,30.02,ESE,102,0.0,4.0,96,0.00,,FEW,0.28,0.00,VWS V14.01,2013-07-18 09:42:00,
2013-07-18 05:44:00,77.7,76.5,30.02,SE,125,1.0,4.0,96,0.00,,FEW,0.28,0.00,VWS V14.01,2013-07-18 09:44:00,
2013-07-18 05:45:00,77.7,76.5,30.02,ESE,109,1.0,4.0,96,0.00,,FEW,0.28,0.00,VWS V14.01,2013-07-18 09:45:00,
2013-07-18 05:46:00,77.7,76.5,30.02,ESE,114,2.0,4.0,96,0.00,,FEW,0.28,0.00,VWS V14.01,2013-07-18 09:46:00,
2013-07-18 05:47:00,77.7,76.5,30.02,ESE,116,2.0,5.0,96,0.00,,FEW,0.28,0.00,VWS V14.01,2013-07-18 09:47:00,
2013-07-18 05:49:00,77.8,76.6,30.02,ESE,115,0.0,5.0,96,0.00,,FEW,0.28,0.00,VWS V14.01,2013-07-18 09:49:00,
2013-07-18 05:50:00,77.8,76.6,30.02,ESE,115,0.0,5.0,96,0.00,,FEW,0.28,0.00,VWS V14.01,2013-07-18 09:50:00,
2013-07-18 05:51:00,77.8,76.6,30.02,ESE,115,1.0,5.0,96,0.00,,FEW,0.28,0.00,VWS V14.01,2013-07-18 09:51:00,
2013-07-18 05:52:00,77.8,76.6,30.02,SE,142,1.0,2.0,96,0.00,,FEW,0.28,0.00,VWS V14.01,2013-07-18 09:52:00,
2013-07-18 05:54:00,77.8,76.6,30.02,SE,142,0.0,2.0,96,0.00,,FEW,0.28,0.00,VWS V14.01,2013-07-18 09:54:00,
2013-07-18 05:55:00,77.8,76.6,30.02,SE,142,0.0,2.0,96,0.00,,FEW,0.28,0.00,VWS V14.01,2013-07-18 09:55:00,
2013-07-18 05:56:00,77.8,76.6,30.02,ESE,111,0.0,4.0,96,0.00,,FEW,0.28,0.00,VWS V14.01,2013-07-18 09:56:00,
2013-07-18 05:57:00,77.8,76.3,30.02,ESE,117,2.0,4.0,95,0.00,,FEW,0.28,0.00,VWS V14.01,2013-07-18 09:57:00,
2013-07-18 06:00:00,77.8,76.3,30.02,ESE,117,0.0,4.0,95,0.00,,FEW,0.28,0.00,VWS V14.01,2013-07-18 10:00:00,
2013-07-18 06:01:00,77.9,76.4,30.03,ESE,111,3.0,4.0,95,0.00,,FEW,0.28,0.00,VWS V14.01,2013-07-18 10:01:00,
2013-07-18 06:02:00,77.9,76.4,30.03,ESE,111,0.0,0.0,95,0.00,,FEW,0.28,0.00,VWS V14.01,2013-07-18 10:02:00,
2013-07-18 06:05:00,77.9,76.4,30.03,SE,138,1.0,3.0,95,0.00,,FEW,0.28,0.00,VWS V14.01,2013-07-18 10:05:00,
2013-07-18 06:06:00,78.0,76.5,30.03,ESE,123,1.0,4.0,95,0.00,,FEW,0.28,0.00,VWS V14.01,2013-07-18 10:06:00,
2013-07-18 06:07:00,78.0,76.5,30.03,SE,142,0.0,4.0,95,0.00,,FEW,0.28,0.00,VWS V14.01,2013-07-18 10:07:00,
2013-07-18 06:08:00,78.0,76.5,30.03,ESE,121,1.0,4.0,95,0.00,,FEW,0.28,0.00,VWS V14.01,2013-07-18 10:08:00,
2013-07-18 06:10:00,78.0,76.8,30.03,ESE,107,3.0,4.0,96,0.00,,FEW,0.28,0.00,VWS V14.01,2013-07-18 10:10:00,
2013-07-18 06:11:00,78.1,76.6,30.03,SE,125,2.0,4.0,95,0.00,,FEW,0.28,0.00,VWS V14.01,2013-07-18 10:11:00,
2013-07-18 06:12:00,78.1,76.6,30.03,SE,124,1.0,4.0,95,0.00,,FEW,0.28,0.00,VWS V14.01,2013-07-18 10:12:00,
2013-07-18 06:13:00,78.1,76.6,30.03,SE,135,1.0,3.0,95,0.00,,FEW,0.28,0.00,VWS V14.01,2013-07-18 10:13:00,
2013-07-18 06:15:00,78.1,76.6,30.03,ESE,123,3.0,3.0,95,0.00,,FEW,0.28,0.00,VWS V14.01,2013-07-18 10:15:00,
2013-07-18 06:16:00,78.2,76.7,30.03,SE,126,0.0,4.0,95,0.00,,FEW,0.28,0.00,VWS V14.01,2013-07-18 10:16:00,
2013-07-18 06:17:00,78.2,76.7,30.03,SE,127,0.0,4.0,95,0.00,,FEW,0.28,0.00,VWS V14.01,2013-07-18 10:17:00,
2013-07-18 06:18:00,78.2,76.7,30.03,ESE,121,1.0,4.0,95,0.00,,FEW,0.28,0.00,VWS V14.01,2013-07-18 10:18:00,
2013-07-18 06:20:00,78.2,76.7,30.03,ESE,121,0.0,4.0,95,0.00,,FEW,0.28,0.00,VWS V14.01,2013-07-18 10:20:00,
2013-07-18 06:21:00,78.2,76.7,30.03,ESE,118,1.0,4.0,95,0.00,,FEW,0.28,0.00,VWS V14.01,2013-07-18 10:21:00,
2013-07-18 06:22:00,78.2,76.7,30.03,East,100,2.0,4.0,95,0.00,,FEW,0.28,0.00,VWS V14.01,2013-07-18 10:22:00,
2013-07-18 06:23:00,78.2,76.7,30.03,ESE,109,2.0,4.0,95,0.00,,FEW,0.28,0.00,VWS V14.01,2013-07-18 10:23:00,
2013-07-18 06:25:00,78.3,76.8,30.03,ESE,117,0.0,4.0,95,0.00,,FEW,0.28,0.00,VWS V14.01,2013-07-18 10:25:00,
2013-07-18 06:26:00,78.3,76.8,30.03,SE,134,4.0,5.0,95,0.00,,FEW,0.28,0.00,VWS V14.01,2013-07-18 10:26:00,
2013-07-18 06:27:00,78.3,76.8,30.03,ESE,121,3.0,5.0,95,0.00,,FEW,0.28,0.00,VWS V14.01,2013-07-18 10:27:00,
2013-07-18 06:28:00,78.3,76.8,30.03,SSE,164,4.0,8.0,95,0.00,,FEW,0.28,0.00,VWS V14.01,2013-07-18 10:28:00,
2013-07-18 06:30:00,78.3,76.8,30.03,SE,128,2.0,8.0,95,0.00,,FEW,0.28,0.00,VWS V14.01,2013-07-18 10:30:00,
2013-07-18 06:31:00,78.3,76.8,30.04,ESE,107,7.0,8.0,95,0.00,,FEW,0.28,0.00,VWS V14.01,2013-07-18 10:31:00,
2013-07-18 06:32:00,78.3,76.8,30.04,SE,138,7.0,7.0,95,0.00,,FEW,0.28,0.00,VWS V14.01,2013-07-18 10:32:00,
2013-07-18 06:33:00,78.4,76.8,30.04,SE,138,3.0,7.0,95,0.00,,FEW,0.28,0.00,VWS V14.01,2013-07-18 10:33:00,
2013-07-18 06:35:00,78.4,76.8,30.04,SE,130,8.0,8.0,95,0.00,,FEW,0.28,0.00,VWS V14.01,2013-07-18 10:35:00,
2013-07-18 06:37:00,78.5,76.9,30.04,SSE,159,11.0,11.0,95,0.02,,FEW,0.30,0.00,VWS V14.01,2013-07-18 10:37:00,
2013-07-18 06:38:00,78.6,77.1,30.04,ESE,123,3.0,11.0,95,0.03,,FEW,0.31,0.00,VWS V14.01,2013-07-18 10:38:00,
2013-07-18 06:40:00,78.6,76.7,30.04,ESE,111,7.0,11.0,94,0.03,,FEW,0.31,0.00,VWS V14.01,2013-07-18 10:40:00,
2013-07-18 06:41:00,78.6,76.7,30.04,ESE,118,2.0,11.0,94,0.03,,FEW,0.31,0.00,VWS V14.01,2013-07-18 10:41:00,
2013-07-18 06:42:00,78.6,76.7,30.04,ESE,111,3.0,5.0,94,0.04,,FEW,0.32,0.00,VWS V14.01,2013-07-18 10:42:00,
2013-07-18 06:43:00,78.6,76.7,30.04,ESE,115,4.0,5.0,94,0.04,,FEW,0.32,0.00,VWS V14.01,2013-07-18 10:43:00,
2013-07-18 06:44:00,78.6,76.7,30.04,SSE,152,3.0,5.0,94,0.05,,FEW,0.33,0.00,VWS V14.01,2013-07-18 10:44:00,
2013-07-18 06:45:00,78.5,76.6,30.04,ESE,112,2.0,5.0,94,0.05,,FEW,0.33,0.00,VWS V14.01,2013-07-18 10:45:00,
2013-07-18 06:46:00,78.5,76.6,30.04,ESE,117,1.0,5.0,94,0.06,,FEW,0.34,0.00,VWS V14.01,2013-07-18 10:46:00,
2013-07-18 06:47:00,78.5,76.6,30.04,SE,138,1.0,5.0,94,0.06,,FEW,0.34,0.00,VWS V14.01,2013-07-18 10:47:00,
2013-07-18 06:48:00,78.5,76.6,30.04,SE,136,1.0,5.0,94,0.06,,FEW,0.34,0.00,VWS V14.01,2013-07-18 10:48:00,
2013-07-18 06:49:00,78.5,76.6,30.04,ESE,112,2.0,5.0,94,0.06,,FEW,0.34,0.00,VWS V14.01,2013-07-18 10:49:00,
2013-07-18 06:50:00,78.5,76.6,30.04,SE,126,2.0,5.0,94,0.06,,FEW,0.34,0.00,VWS V14.01,2013-07-18 10:50:00,
2013-07-18 06:51:00,78.5,76.6,30.04,ESE,106,0.0,5.0,94,0.08,,FEW,0.36,0.00,VWS V14.01,2013-07-18 10:51:00,
2013-07-18 06:53:00,78.5,76.6,30.04,ESE,106,0.0,0.0,94,0.09,,FEW,0.37,0.00,VWS V14.01,2013-07-18 10:53:00,
2013-07-18 06:54:00,78.5,76.6,30.04,ESE,119,0.0,2.0,94,0.09,,FEW,0.37,0.00,VWS V14.01,2013-07-18 10:54:00,
2013-07-18 06:56:00,78.4,76.5,30.04,SSE,149,4.0,4.0,94,0.09,,FEW,0.37,0.00,VWS V14.01,2013-07-18 10:56:00,
2013-07-18 06:58:00,78.4,76.5,30.04,SE,131,2.0,4.0,94,0.09,,FEW,0.37,0.00,VWS V14.01,2013-07-18 10:58:00,
2013-07-18 06:59:00,78.3,76.4,30.04,SE,126,3.0,4.0,94,0.09,,FEW,0.37,5.00,VWS V14.01,2013-07-18 10:59:00,
2013-07-18 07:01:00,78.3,76.4,30.04,SE,131,6.0,6.0,94,0.09,,FEW,0.37,5.00,VWS V14.01,2013-07-18 11:01:00,
2013-07-18 07:03:00,78.3,76.4,30.04,ESE,109,1.0,4.0,94,0.09,,FEW,0.37,7.00,VWS V14.01,2013-07-18 11:03:00,
2013-07-18 07:04:00,78.3,76.4,30.04,SE,124,2.0,4.0,94,0.09,,FEW,0.37,7.00,VWS V14.01,2013-07-18 11:04:00,
2013-07-18 07:06:00,78.3,76.4,30.04,ESE,108,1.0,4.0,94,0.09,,FEW,0.37,9.00,VWS V14.01,2013-07-18 11:06:00,
2013-07-18 07:08:00,78.2,76.3,30.04,SE,146,5.0,5.0,94,0.09,,FEW,0.37,11.00,VWS V14.01,2013-07-18 11:08:00,
2013-07-18 07:09:00,78.2,76.3,30.04,SE,140,0.0,7.0,94,0.09,,FEW,0.37,12.00,VWS V14.01,2013-07-18 11:09:00,
2013-07-18 07:11:00,78.2,76.3,30.04,SE,140,0.0,7.0,94,0.09,,FEW,0.37,14.00,VWS V14.01,2013-07-18 11:11:00,
2013-07-18 07:13:00,78.2,76.3,30.04,SE,143,2.0,3.0,94,0.09,,FEW,0.37,16.00,VWS V14.01,2013-07-18 11:13:00,
2013-07-18 07:15:00,78.3,76.4,30.04,SE,126,2.0,8.0,94,0.09,,FEW,0.37,18.00,VWS V14.01,2013-07-18 11:15:00,
2013-07-18 07:16:00,78.3,76.4,30.04,SE,144,1.0,8.0,94,0.09,,FEW,0.37,19.00,VWS V14.01,2013-07-18 11:16:00,
2013-07-18 07:18:00,78.3,76.4,30.03,ESE,119,0.0,8.0,94,0.09,,FEW,0.37,21.00,VWS V14.01,2013-07-18 11:18:00,
2013-07-18 07:20:00,78.3,76.4,30.03,ESE,103,0.0,8.0,94,0.09,,FEW,0.37,23.00,VWS V14.01,2013-07-18 11:20:00,
2013-07-18 07:21:00,78.3,76.4,30.03,SE,141,4.0,8.0,94,0.09,,FEW,0.37,25.00,VWS V14.01,2013-07-18 11:21:00,
2013-07-18 07:23:00,78.3,76.4,30.03,SSE,155,2.0,4.0,94,0.09,,FEW,0.37,26.00,VWS V14.01,2013-07-18 11:23:00,
2013-07-18 07:24:00,78.3,76.4,30.03,SE,139,2.0,4.0,94,0.09,,FEW,0.37,26.00,VWS V14.01,2013-07-18 11:24:00,
2013-07-18 07:25:00,78.3,76.4,30.03,SE,143,2.0,4.0,94,0.09,,FEW,0.37,28.00,VWS V14.01,2013-07-18 11:25:00,
2013-07-18 07:26:00,78.3,76.4,30.03,ESE,119,4.0,4.0,94,0.09,,FEW,0.37,28.00,VWS V14.01,2013-07-18 11:26:00,
2013-07-18 07:27:00,78.3,76.4,30.03,ESE,117,1.0,4.0,94,0.09,,FEW,0.37,30.00,VWS V14.01,2013-07-18 11:27:00,
2013-07-18 07:28:00,78.4,76.5,30.03,ESE,106,4.0,4.0,94,0.09,,FEW,0.37,30.00,VWS V14.01,2013-07-18 11:28:00,
2013-07-18 07:29:00,78.4,76.5,30.03,ESE,121,4.0,5.0,94,0.09,,FEW,0.37,30.00,VWS V14.01,2013-07-18 11:29:00,
2013-07-18 07:30:00,78.3,76.4,30.03,SE,141,0.0,5.0,94,0.09,,FEW,0.37,32.00,VWS V14.01,2013-07-18 11:30:00,
2013-07-18 07:31:00,78.4,76.5,30.05,ESE,111,0.0,5.0,94,0.09,,FEW,0.37,32.00,VWS V14.01,2013-07-18 11:31:00,
2013-07-18 07:32:00,78.4,76.5,30.05,East,84,0.0,5.0,94,0.09,,FEW,0.37,32.00,VWS V14.01,2013-07-18 11:32:00,
2013-07-18 07:34:00,78.4,76.5,30.05,ESE,112,3.0,5.0,94,0.09,,FEW,0.37,33.00,VWS V14.01,2013-07-18 11:34:00,
2013-07-18 07:35:00,78.4,76.5,30.05,ESE,112,0.0,5.0,94,0.09,,FEW,0.37,33.00,VWS V14.01,2013-07-18 11:35:00,
2013-07-18 07:37:00,78.5,76.6,30.05,ESE,113,1.0,5.0,94,0.09,,FEW,0.37,33.00,VWS V14.01,2013-07-18 11:37:00,
2013-07-18 07:39:00,78.5,76.6,30.05,SE,131,1.0,5.0,94,0.09,,FEW,0.37,35.00,VWS V14.01,2013-07-18 11:39:00,
2013-07-18 07:40:00,78.5,76.6,30.05,ESE,116,0.0,5.0,94,0.09,,FEW,0.37,35.00,VWS V14.01,2013-07-18 11:40:00,
2013-07-18 07:42:00,78.5,76.6,30.05,SE,140,0.0,5.0,94,0.09,,FEW,0.37,35.00,VWS V14.01,2013-07-18 11:42:00,
2013-07-18 07:44:00,78.6,76.7,30.05,ESE,111,0.0,7.0,94,0.05,,FEW,0.37,35.00,VWS V14.01,2013-07-18 11:44:00,
2013-07-18 07:45:00,78.6,76.7,30.05,ESE,115,0.0,7.0,94,0.05,,FEW,0.37,35.00,VWS V14.01,2013-07-18 11:45:00,
2013-07-18 07:47:00,78.7,76.8,30.05,ESE,113,1.0,7.0,94,0.05,,FEW,0.37,35.00,VWS V14.01,2013-07-18 11:47:00,
2013-07-18 07:49:00,78.7,76.8,30.05,East,81,0.0,7.0,94,0.05,,FEW,0.37,39.00,VWS V14.01,2013-07-18 11:49:00,
2013-07-18 07:50:00,78.7,76.5,30.05,East,96,0.0,7.0,93,0.05,,FEW,0.37,39.00,VWS V14.01,2013-07-18 11:50:00,
2013-07-18 07:52:00,78.8,76.6,30.05,ESE,110,0.0,7.0,93,0.05,,FEW,0.37,40.00,VWS V14.01,2013-07-18 11:52:00,
2013-07-18 07:54:00,78.8,76.6,30.05,East,80,0.0,2.0,93,0.00,,FEW,0.37,40.00,VWS V14.01,2013-07-18 11:54:00,
2013-07-18 07:55:00,78.8,76.6,30.05,ESE,116,0.0,3.0,93,0.00,,FEW,0.37,42.00,VWS V14.01,2013-07-18 11:55:00,
2013-07-18 07:56:00,78.8,76.6,30.05,ESE,109,0.0,3.0,93,0.00,,FEW,0.37,42.00,VWS V14.01,2013-07-18 11:56:00,
2013-07-18 07:57:00,78.8,76.6,30.05,ESE,104,0.0,3.0,93,0.00,,FEW,0.37,42.00,VWS V14.01,2013-07-18 11:57:00,
2013-07-18 07:59:00,78.9,76.7,30.05,East,94,0.0,3.0,93,0.00,,FEW,0.37,44.00,VWS V14.01,2013-07-18 11:59:00,
2013-07-18 08:00:00,78.9,76.7,30.05,East,94,0.0,3.0,93,0.00,,FEW,0.37,44.00,VWS V14.01,2013-07-18 12:00:00,
2013-07-18 08:01:00,78.9,76.7,30.05,SE,131,0.0,3.0,93,0.00,,FEW,0.37,44.00,VWS V14.01,2013-07-18 12:01:00,
2013-07-18 08:02:00,78.9,76.7,30.05,ESE,109,0.0,0.0,93,0.00,,FEW,0.37,44.00,VWS V14.01,2013-07-18 12:02:00,
2013-07-18 08:04:00,78.9,76.7,30.05,ESE,109,0.0,1.0,93,0.00,,FEW,0.37,44.00,VWS V14.01,2013-07-18 12:04:00,
2013-07-18 08:05:00,78.9,76.7,30.05,SE,131,1.0,2.0,93,0.00,,FEW,0.37,46.00,VWS V14.01,2013-07-18 12:05:00,
2013-07-18 08:06:00,78.9,76.7,30.05,SE,131,0.0,2.0,93,0.00,,FEW,0.37,46.00,VWS V14.01,2013-07-18 12:06:00,
2013-07-18 08:07:00,79.0,76.8,30.05,East,96,0.0,2.0,93,0.00,,FEW,0.37,47.00,VWS V14.01,2013-07-18 12:07:00,
2013-07-18 08:09:00,79.0,76.8,30.05,SW,220,2.0,2.0,93,0.00,,FEW,0.37,51.00,VWS V14.01,2013-07-18 12:09:00,
2013-07-18 08:10:00,79.0,76.8,30.05,ESE,107,5.0,7.0,93,0.00,,FEW,0.37,51.00,VWS V14.01,2013-07-18 12:10:00,
2013-07-18 08:11:00,79.1,76.9,30.05,ESE,104,0.0,7.0,93,0.00,,FEW,0.37,51.00,VWS V14.01,2013-07-18 12:11:00,
2013-07-18 08:13:00,79.1,76.9,30.05,ESE,104,0.0,0.0,93,0.00,,FEW,0.37,54.00,VWS V14.01,2013-07-18 12:13:00,
2013-07-18 08:14:00,79.1,76.9,30.05,SE,138,0.0,2.0,93,0.00,,FEW,0.37,54.00,VWS V14.01,2013-07-18 12:14:00,
2013-07-18 08:15:00,79.2,77.0,30.05,ESE,121,1.0,3.0,93,0.00,,FEW,0.37,54.00,VWS V14.01,2013-07-18 12:15:00,
2013-07-18 08:16:00,79.2,77.0,30.06,East,89,1.0,3.0,93,0.00,,FEW,0.37,54.00,VWS V14.01,2013-07-18 12:16:00,
2013-07-18 08:18:00,79.2,77.0,30.06,ESE,121,3.0,4.0,93,0.00,,FEW,0.37,62.00,VWS V14.01,2013-07-18 12:18:00,
2013-07-18 08:19:00,79.3,77.1,30.06,SE,144,2.0,4.0,93,0.00,,FEW,0.37,63.00,VWS V14.01,2013-07-18 12:19:00,
2013-07-18 08:20:00,79.2,77.0,30.06,NE,42,3.0,6.0,93,0.00,,FEW,0.37,70.00,VWS V14.01,2013-07-18 12:20:00,
2013-07-18 08:21:00,79.2,77.0,30.06,SE,146,3.0,6.0,93,0.00,,FEW,0.37,77.00,VWS V14.01,2013-07-18 12:21:00,
2013-07-18 08:23:00,79.1,76.6,30.06,SE,134,3.0,7.0,92,0.00,,FEW,0.37,86.00,VWS V14.01,2013-07-18 12:23:00,
2013-07-18 08:25:00,79.0,76.5,30.06,East,80,5.0,11.0,92,0.00,,FEW,0.37,104.00,VWS V14.01,2013-07-18 12:25:00,
2013-07-18 08:26:00,78.9,76.4,30.06,NE,55,1.0,11.0,92,0.00,,FEW,0.37,111.00,VWS V14.01,2013-07-18 12:26:00,
2013-07-18 08:28:00,79.0,76.5,30.06,ESE,113,2.0,11.0,92,0.00,,FEW,0.37,109.00,VWS V14.01,2013-07-18 12:28:00,
2013-07-18 08:30:00,79.0,76.5,30.06,ENE,74,3.0,11.0,92,0.00,,FEW,0.37,105.00,VWS V14.01,2013-07-18 12:30:00,
2013-07-18 08:31:00,78.9,76.4,30.07,East,91,1.0,11.0,92,0.00,,FEW,0.37,105.00,VWS V14.01,2013-07-18 12:31:00,
2013-07-18 08:33:00,78.7,75.9,30.07,ENE,71,3.0,8.0,91,0.00,,FEW,0.37,104.00,VWS V14.01,2013-07-18 12:33:00,
2013-07-18 08:35:00,78.5,75.7,30.07,SE,128,7.0,8.0,91,0.00,,FEW,0.37,100.00,VWS V14.01,2013-07-18 12:35:00,
2013-07-18 08:36:00,78.4,75.6,30.07,NE,40,0.0,8.0,91,0.00,,FEW,0.37,105.00,VWS V14.01,2013-07-18 12:36:00,
2013-07-18 08:37:00,78.4,75.6,30.07,ENE,72,5.0,8.0,91,0.00,,FEW,0.37,109.00,VWS V14.01,2013-07-18 12:37:00,
2013-07-18 08:38:00,78.5,75.7,30.07,East,98,3.0,8.0,91,0.00,,FEW,0.37,111.00,VWS V14.01,2013-07-18 12:38:00,
2013-07-18 08:41:00,78.6,75.8,30.07,SE,138,0.0,8.0,91,0.00,,FEW,0.37,121.00,VWS V14.01,2013-07-18 12:41:00,
2013-07-18 08:42:00,78.6,75.8,30.07,ESE,108,4.0,8.0,91,0.00,,FEW,0.37,127.00,VWS V14.01,2013-07-18 12:42:00,
2013-07-18 08:43:00,78.5,75.7,30.07,East,100,5.0,5.0,91,0.01,,FEW,0.38,135.00,VWS V14.01,2013-07-18 12:43:00,
2013-07-18 08:46:00,78.6,75.8,30.07,ENE,77,2.0,7.0,91,0.01,,FEW,0.38,146.00,VWS V14.01,2013-07-18 12:46:00,
2013-07-18 08:47:00,78.6,75.8,30.07,ESE,114,0.0,7.0,91,0.01,,FEW,0.38,148.00,VWS V14.01,2013-07-18 12:47:00,
2013-07-18 08:48:00,78.6,75.8,30.07,ENE,67,1.0,7.0,91,0.01,,FEW,0.38,149.00,VWS V14.01,2013-07-18 12:48:00,
2013-07-18 08:51:00,78.7,75.9,30.07,ESE,113,3.0,7.0,91,0.01,,FEW,0.38,158.00,VWS V14.01,2013-07-18 12:51:00,
2013-07-18 08:52:00,78.7,75.9,30.07,ESE,115,2.0,2.0,91,0.01,,FEW,0.38,163.00,VWS V14.01,2013-07-18 12:52:00,
2013-07-18 08:53:00,78.7,75.9,30.07,ENE,76,0.0,2.0,91,0.01,,FEW,0.38,171.00,VWS V14.01,2013-07-18 12:53:00,
2013-07-18 08:56:00,78.9,76.1,30.07,ESE,121,1.0,3.0,91,0.01,,FEW,0.38,272.00,VWS V14.01,2013-07-18 12:56:00,
2013-07-18 08:58:00,79.0,76.2,30.07,ENE,67,2.0,3.0,91,0.01,,FEW,0.38,272.00,VWS V14.01,2013-07-18 12:58:00,
2013-07-18 09:02:00,79.4,76.6,30.07,ENE,65,1.0,4.0,91,0.01,,FEW,0.38,374.00,VWS V14.01,2013-07-18 13:02:00,
2013-07-18 09:03:00,79.5,76.7,30.07,SE,133,2.0,2.0,91,0.01,,FEW,0.38,373.00,VWS V14.01,2013-07-18 13:03:00,
2013-07-18 09:04:00,79.6,76.8,30.07,ENE,61,4.0,4.0,91,0.01,,FEW,0.38,357.00,VWS V14.01,2013-07-18 13:04:00,
2013-07-18 09:07:00,79.7,76.5,30.07,NE,54,1.0,6.0,90,0.01,,FEW,0.38,364.00,VWS V14.01,2013-07-18 13:07:00,
2013-07-18 09:08:00,79.8,76.6,30.07,ENE,57,3.0,6.0,90,0.01,,FEW,0.38,381.00,VWS V14.01,2013-07-18 13:08:00,
2013-07-18 09:09:00,80.0,76.8,30.07,ENE,70,1.0,6.0,90,0.01,,FEW,0.38,446.00,VWS V14.01,2013-07-18 13:09:00,
2013-07-18 09:12:00,80.3,77.1,30.07,ENE,76,3.0,6.0,90,0.01,,FEW,0.38,454.00,VWS V14.01,2013-07-18 13:12:00,
2013-07-18 09:13:00,80.4,77.2,30.07,East,84,2.0,2.0,90,0.01,,FEW,0.38,450.00,VWS V14.01,2013-07-18 13:13:00,
2013-07-18 09:15:00,80.7,77.5,30.07,East,83,2.0,4.0,90,0.01,,FEW,0.38,438.00,VWS V14.01,2013-07-18 13:15:00,
2013-07-18 09:17:00,81.0,77.8,30.07,ESE,105,0.0,4.0,90,0.01,,FEW,0.38,427.00,VWS V14.01,2013-07-18 13:17:00,
2013-07-18 09:18:00,81.1,77.9,30.07,ENE,57,0.0,4.0,90,0.01,,FEW,0.38,427.00,VWS V14.01,2013-07-18 13:18:00,
2013-07-18 09:19:00,81.2,78.0,30.07,ENE,57,0.0,4.0,90,0.01,,FEW,0.38,443.00,VWS V14.01,2013-07-18 13:19:00,
2013-07-18 09:20:00,81.4,78.2,30.07,ESE,110,1.0,4.0,90,0.01,,FEW,0.38,478.00,VWS V14.01,2013-07-18 13:20:00,
2013-07-18 09:22:00,81.6,78.1,30.07,East,88,2.0,2.0,89,0.01,,FEW,0.38,492.00,VWS V14.01,2013-07-18 13:22:00,
2013-07-18 09:23:00,81.7,78.2,30.07,ESE,117,7.0,7.0,89,0.01,,FEW,0.38,471.00,VWS V14.01,2013-07-18 13:23:00,
2013-07-18 09:24:00,81.7,77.8,30.07,ENE,77,2.0,7.0,88,0.01,,FEW,0.38,489.00,VWS V14.01,2013-07-18 13:24:00,
2013-07-18 09:25:00,81.8,77.9,30.07,SE,125,7.0,7.0,88,0.01,,FEW,0.38,492.00,VWS V14.01,2013-07-18 13:25:00,
2013-07-18 09:28:00,81.7,77.5,30.07,ENE,65,7.0,9.0,87,0.01,,FEW,0.38,499.00,VWS V14.01,2013-07-18 13:28:00,
2013-07-18 09:29:00,81.7,77.5,30.07,NE,56,2.0,9.0,87,0.01,,FEW,0.38,494.00,VWS V14.01,2013-07-18 13:29:00,
2013-07-18 09:30:00,81.7,77.5,30.07,ENE,73,2.0,9.0,87,0.01,,FEW,0.38,499.00,VWS V14.01,2013-07-18 13:30:00,
2013-07-18 09:33:00,81.8,77.2,30.07,East,101,1.0,4.0,86,0.01,,FEW,0.38,483.00,VWS V14.01,2013-07-18 13:33:00,
2013-07-18 09:34:00,81.8,77.2,30.07,ENE,75,2.0,5.0,86,0.01,,FEW,0.38,504.00,VWS V14.01,2013-07-18 13:34:00,
2013-07-18 09:35:00,81.8,77.2,30.07,East,85,3.0,9.0,86,0.01,,FEW,0.38,512.00,VWS V14.01,2013-07-18 13:35:00,
2013-07-18 09:38:00,81.8,76.8,30.07,ENE,77,3.0,9.0,85,0.01,,FEW,0.38,515.00,VWS V14.01,2013-07-18 13:38:00,
2013-07-18 09:39:00,81.9,76.9,30.07,NE,49,2.0,9.0,85,0.01,,FEW,0.38,524.00,VWS V14.01,2013-07-18 13:39:00,
2013-07-18 09:40:00,82.0,77.1,30.07,NE,44,5.0,9.0,85,0.01,,FEW,0.38,536.00,VWS V14.01,2013-07-18 13:40:00,
2013-07-18 09:43:00,82.1,76.8,30.07,ESE,121,2.0,7.0,84,0.01,,FEW,0.38,550.00,VWS V14.01,2013-07-18 13:43:00,
2013-07-18 09:44:00,82.1,76.8,30.07,ENE,74,2.0,7.0,84,0.01,,FEW,0.38,554.00,VWS V14.01,2013-07-18 13:44:00,
2013-07-18 09:45:00,82.1,76.8,30.07,NE,53,0.0,7.0,84,0.01,,FEW,0.38,552.00,VWS V14.01,2013-07-18 13:45:00,
2013-07-18 09:48:00,82.3,77.0,30.07,ENE,58,2.0,8.0,84,0.01,,FEW,0.38,548.00,VWS V14.01,2013-07-18 13:48:00,
2013-07-18 09:49:00,82.4,77.1,30.07,NNE,22,5.0,8.0,84,0.01,,FEW,0.38,548.00,VWS V14.01,2013-07-18 13:49:00,
2013-07-18 09:50:00,82.4,77.1,30.07,ENE,61,2.0,8.0,84,0.01,,FEW,0.38,548.00,VWS V14.01,2013-07-18 13:50:00,
2013-07-18 09:54:00,82.5,76.8,30.07,ESE,106,7.0,7.0,83,0.00,,FEW,0.38,568.00,VWS V14.01,2013-07-18 13:54:00,
2013-07-18 09:55:00,82.6,76.9,30.07,ESE,111,1.0,7.0,83,0.00,,FEW,0.38,570.00,VWS V14.01,2013-07-18 13:55:00,
2013-07-18 09:59:00,82.7,77.0,30.07,NNE,25,3.0,9.0,83,0.00,,FEW,0.38,594.00,VWS V14.01,2013-07-18 13:59:00,
2013-07-18 10:00:00,82.8,77.1,30.07,ESE,103,4.0,9.0,83,0.00,,FEW,0.38,606.00,VWS V14.01,2013-07-18 14:00:00,
2013-07-18 10:01:00,82.9,77.2,30.07,NE,55,3.0,9.0,83,0.00,,FEW,0.38,615.00,VWS V14.01,2013-07-18 14:01:00,
2013-07-18 10:04:00,83.0,77.3,30.07,East,89,5.0,7.0,83,0.00,,FEW,0.38,636.00,VWS V14.01,2013-07-18 14:04:00,
2013-07-18 10:05:00,83.0,77.3,30.07,ENE,69,1.0,7.0,83,0.00,,FEW,0.38,636.00,VWS V14.01,2013-07-18 14:05:00,
2013-07-18 10:06:00,83.1,77.4,30.07,ENE,57,3.0,7.0,83,0.00,,FEW,0.38,613.00,VWS V14.01,2013-07-18 14:06:00,
2013-07-18 10:10:00,83.4,77.7,30.07,ENE,58,2.0,7.0,83,0.00,,FEW,0.38,652.00,VWS V14.01,2013-07-18 14:10:00,
2013-07-18 10:11:00,83.5,77.4,30.07,ENE,61,3.0,10.0,82,0.00,,FEW,0.38,661.00,VWS V14.01,2013-07-18 14:11:00,
2013-07-18 10:15:00,83.7,77.6,30.07,NE,43,5.0,7.0,82,0.00,,FEW,0.38,689.00,VWS V14.01,2013-07-18 14:15:00,
2013-07-18 10:16:00,83.7,77.6,30.07,East,79,5.0,7.0,82,0.00,,FEW,0.38,696.00,VWS V14.01,2013-07-18 14:16:00,
2013-07-18 10:20:00,84.0,77.5,30.07,ESE,107,2.0,9.0,81,0.00,,FEW,0.38,735.00,VWS V14.01,2013-07-18 14:20:00,
2013-07-18 10:21:00,84.1,77.6,30.07,ENE,61,3.0,9.0,81,0.00,,FEW,0.38,747.00,VWS V14.01,2013-07-18 14:21:00,
2013-07-18 10:25:00,84.7,78.6,30.07,NE,50,2.0,3.0,82,0.00,,FEW,0.38,810.00,VWS V14.01,2013-07-18 14:25:00,
2013-07-18 10:26:00,84.9,78.8,30.07,ENE,65,2.0,3.0,82,0.00,,FEW,0.38,810.00,VWS V14.01,2013-07-18 14:26:00,
2013-07-18 10:30:00,85.4,78.5,30.07,ESE,109,2.0,6.0,80,0.00,,FEW,0.38,647.00,VWS V14.01,2013-07-18 14:30:00,
2013-07-18 10:31:00,85.4,78.5,30.07,ENE,65,2.0,6.0,80,0.00,,FEW,0.38,647.00,VWS V14.01,2013-07-18 14:31:00,
2013-07-18 10:32:00,85.4,78.5,30.07,ENE,78,2.0,6.0,80,0.00,,FEW,0.38,647.00,VWS V14.01,2013-07-18 14:32:00,
2013-07-18 10:35:00,85.6,78.7,30.07,East,80,0.0,4.0,80,0.00,,FEW,0.38,594.00,VWS V14.01,2013-07-18 14:35:00,
2013-07-18 10:36:00,85.7,78.8,30.07,NE,39,3.0,4.0,80,0.00,,FEW,0.38,494.00,VWS V14.01,2013-07-18 14:36:00,
2013-07-18 10:37:00,85.7,78.8,30.07,NE,52,2.0,6.0,80,0.00,,FEW,0.38,406.00,VWS V14.01,2013-07-18 14:37:00,
2013-07-18 10:40:00,85.6,78.3,30.07,NE,36,1.0,6.0,79,0.00,,FEW,0.38,302.00,VWS V14.01,2013-07-18 14:40:00,
2013-07-18 10:41:00,85.6,78.3,30.07,East,83,3.0,6.0,79,0.00,,FEW,0.38,302.00,VWS V14.01,2013-07-18 14:41:00,
2013-07-18 10:42:00,85.5,78.2,30.07,East,92,2.0,4.0,79,0.00,,FEW,0.38,329.00,VWS V14.01,2013-07-18 14:42:00,
2013-07-18 10:45:00,85.2,77.9,30.07,ENE,65,1.0,5.0,79,0.00,,FEW,0.38,338.00,VWS V14.01,2013-07-18 14:45:00,
2013-07-18 10:46:00,85.1,78.2,30.07,ENE,65,1.0,5.0,80,0.00,,FEW,0.38,330.00,VWS V14.01,2013-07-18 14:46:00,
2013-07-18 10:48:00,85.0,78.1,30.07,ENE,74,1.0,5.0,80,0.00,,FEW,0.38,336.00,VWS V14.01,2013-07-18 14:48:00,
2013-07-18 10:50:00,85.0,78.5,30.07,NNE,21,2.0,5.0,81,0.00,,FEW,0.38,343.00,VWS V14.01,2013-07-18 14:50:00,
2013-07-18 10:51:00,85.0,78.5,30.07,NE,53,0.0,5.0,81,0.00,,FEW,0.38,350.00,VWS V14.01,2013-07-18 14:51:00,
2013-07-18 10:53:00,85.0,78.5,30.07,ENE,69,3.0,3.0,81,0.00,,FEW,0.38,394.00,VWS V14.01,2013-07-18 14:53:00,
2013-07-18 10:55:00,84.8,78.3,30.07,ESE,103,4.0,6.0,81,0.00,,FEW,0.38,345.00,VWS V14.01,2013-07-18 14:55:00,
2013-07-18 10:56:00,84.7,78.2,30.07,East,79,1.0,6.0,81,0.00,,FEW,0.38,343.00,VWS V14.01,2013-07-18 14:56:00,
2013-07-18 10:58:00,84.6,78.1,30.07,ENE,64,3.0,6.0,81,0.00,,FEW,0.38,345.00,VWS V14.01,2013-07-18 14:58:00,
2013-07-18 11:01:00,84.4,78.3,30.07,ESE,109,1.0,6.0,82,0.00,,FEW,0.38,380.00,VWS V14.01,2013-07-18 15:01:00,
2013-07-18 11:02:00,84.4,78.3,30.07,ENE,71,0.0,6.0,82,0.00,,FEW,0.38,325.00,VWS V14.01,2013-07-18 15:02:00,
2013-07-18 11:03:00,84.4,78.7,30.07,East,84,1.0,2.0,83,0.00,,FEW,0.38,295.00,VWS V14.01,2013-07-18 15:03:00,
2013-07-18 11:06:00,84.4,78.7,30.07,NE,50,3.0,6.0,83,0.00,,FEW,0.38,267.00,VWS V14.01,2013-07-18 15:06:00,
2013-07-18 11:07:00,84.4,78.7,30.07,NNE,25,5.0,6.0,83,0.00,,FEW,0.38,267.00,VWS V14.01,2013-07-18 15:07:00,
2013-07-18 11:08:00,84.3,78.6,30.07,ESE,103,7.0,7.0,83,0.00,,FEW,0.38,267.00,VWS V14.01,2013-07-18 15:08:00,
2013-07-18 11:11:00,84.0,78.3,30.07,ENE,78,2.0,8.0,83,0.00,,FEW,0.38,239.00,VWS V14.01,2013-07-18 15:11:00,
2013-07-18 11:12:00,84.0,78.3,30.07,East,96,1.0,8.0,83,0.00,,FEW,0.38,239.00,VWS V14.01,2013-07-18 15:12:00,
2013-07-18 11:13:00,84.0,78.3,30.07,ENE,63,0.0,5.0,83,0.00,,FEW,0.38,258.00,VWS V14.01,2013-07-18 15:13:00,
2013-07-18 11:16:00,83.9,78.6,30.08,ENE,61,4.0,5.0,84,0.00,,FEW,0.38,246.00,VWS V14.01,2013-07-18 15:16:00,
2013-07-18 11:17:00,83.9,78.6,30.08,NE,42,4.0,5.0,84,0.00,,FEW,0.38,239.00,VWS V14.01,2013-07-18 15:17:00,
2013-07-18 11:18:00,83.8,78.4,30.08,East,79,2.0,5.0,84,0.00,,FEW,0.38,227.00,VWS V14.01,2013-07-18 15:18:00,
2013-07-18 11:22:00,83.8,78.4,30.08,East,89,1.0,5.0,84,0.00,,FEW,0.38,181.00,VWS V14.01,2013-07-18 15:22:00,
2013-07-18 11:23:00,83.7,78.7,30.08,East,95,2.0,4.0,85,0.00,,FEW,0.38,207.00,VWS V14.01,2013-07-18 15:23:00,
2013-07-18 11:27:00,83.6,78.6,30.08,ENE,65,3.0,4.0,85,0.00,,FEW,0.38,181.00,VWS V14.01,2013-07-18 15:27:00,
2013-07-18 11:28:00,83.5,78.5,30.08,ENE,67,1.0,5.0,85,0.00,,FEW,0.38,130.00,VWS V14.01,2013-07-18 15:28:00,
2013-07-18 11:32:00,83.4,78.4,30.08,East,94,1.0,1.0,85,0.00,,FEW,0.38,130.00,VWS V14.01,2013-07-18 15:32:00,
2013-07-18 11:35:00,83.4,78.4,30.08,ENE,66,0.0,2.0,85,0.00,,FEW,0.38,81.00,VWS V14.01,2013-07-18 15:35:00,
2013-07-18 11:37:00,83.4,78.8,30.08,East,88,0.0,2.0,86,0.00,,FEW,0.38,47.00,VWS V14.01,2013-07-18 15:37:00,
2013-07-18 11:38:00,83.4,78.8,30.08,East,88,0.0,2.0,86,0.00,,FEW,0.38,47.00,VWS V14.01,2013-07-18 15:38:00,
2013-07-18 11:40:00,83.3,78.7,30.08,ESE,105,1.0,4.0,86,0.00,,FEW,0.38,53.00,VWS V14.01,2013-07-18 15:40:00,
2013-07-18 11:42:00,83.3,78.7,30.08,ENE,76,1.0,1.0,86,0.00,,FEW,0.38,56.00,VWS V14.01,2013-07-18 15:42:00,
2013-07-18 11:43:00,83.2,78.6,30.08,ENE,76,0.0,1.0,86,0.00,,FEW,0.38,77.00,VWS V14.01,2013-07-18 15:43:00,
2013-07-18 11:45:00,83.2,78.6,30.08,East,98,0.0,6.0,86,0.00,,FEW,0.38,95.00,VWS V14.01,2013-07-18 15:45:00,
2013-07-18 11:47:00,83.0,78.4,30.08,SE,126,3.0,6.0,86,0.00,,FEW,0.38,102.00,VWS V14.01,2013-07-18 15:47:00,
2013-07-18 11:48:00,83.0,78.4,30.08,NE,50,2.0,6.0,86,0.00,,FEW,0.38,102.00,VWS V14.01,2013-07-18 15:48:00,
2013-07-18 11:50:00,82.7,77.7,30.08,ENE,61,5.0,7.0,85,0.00,,FEW,0.38,98.00,VWS V14.01,2013-07-18 15:50:00,
2013-07-18 11:53:00,82.6,78.0,30.08,ESE,119,2.0,2.0,86,0.00,,FEW,0.38,63.00,VWS V14.01,2013-07-18 15:53:00,
2013-07-18 11:55:00,82.5,77.9,30.08,SE,132,3.0,5.0,86,0.00,,FEW,0.38,60.00,VWS V14.01,2013-07-18 15:55:00,
2013-07-18 11:58:00,82.3,78.1,30.08,ESE,110,2.0,5.0,87,0.00,,FEW,0.38,49.00,VWS V14.01,2013-07-18 15:58:00,
2013-07-18 11:59:00,82.2,77.9,30.08,SE,124,3.0,5.0,87,0.00,,FEW,0.38,47.00,VWS V14.01,2013-07-18 15:59:00,
2013-07-18 12:00:00,82.1,77.8,30.08,ESE,112,1.0,5.0,87,0.00,,FEW,0.38,39.00,VWS V14.01,2013-07-18 16:00:00,
2013-07-18 12:03:00,81.9,77.7,30.08,ENE,74,1.0,6.0,87,0.00,,FEW,0.38,33.00,VWS V14.01,2013-07-18 16:03:00,
2013-07-18 12:04:00,81.7,77.5,30.08,ENE,57,2.0,6.0,87,0.00,,FEW,0.38,35.00,VWS V14.01,2013-07-18 16:04:00,
2013-07-18 12:05:00,81.5,77.3,30.08,NE,56,3.0,6.0,87,0.00,,FEW,0.38,40.00,VWS V14.01,2013-07-18 16:05:00,
2013-07-18 12:08:00,81.3,77.1,30.08,ENE,77,2.0,6.0,87,0.00,,FEW,0.38,19.00,VWS V14.01,2013-07-18 16:08:00,
2013-07-18 12:09:00,81.2,77.0,30.08,ENE,71,1.0,7.0,87,0.00,,FEW,0.38,18.00,VWS V14.01,2013-07-18 16:09:00,
2013-07-18 12:11:00,80.9,76.7,30.08,ENE,71,2.0,8.0,87,0.00,,FEW,0.38,14.00,VWS V14.01,2013-07-18 16:11:00,
2013-07-18 12:13:00,80.5,75.9,30.08,ENE,76,0.0,4.0,86,0.00,,FEW,0.38,21.00,VWS V14.01,2013-07-18 16:13:00,
2013-07-18 12:14:00,80.4,75.8,30.08,ENE,67,2.0,4.0,86,0.00,,FEW,0.38,28.00,VWS V14.01,2013-07-18 16:14:00,
2013-07-18 12:16:00,80.2,76.0,30.08,NNE,29,3.0,9.0,87,0.00,,FEW,0.38,26.00,VWS V14.01,2013-07-18 16:16:00,
2013-07-18 12:18:00,79.9,75.7,30.08,NE,44,2.0,9.0,87,0.00,,FEW,0.38,21.00,VWS V14.01,2013-07-18 16:18:00,
2013-07-18 12:19:00,79.8,75.2,30.08,NE,56,2.0,9.0,86,0.00,,FEW,0.38,21.00,VWS V14.01,2013-07-18 16:19:00,
2013-07-18 12:21:00,79.5,74.9,30.08,ESE,123,10.0,10.0,86,0.00,,FEW,0.38,30.00,VWS V14.01,2013-07-18 16:21:00,
2013-07-18 12:23:00,79.1,74.6,30.08,ENE,68,8.0,8.0,86,0.00,,FEW,0.38,32.00,VWS V14.01,2013-07-18 16:23:00,
2013-07-18 12:24:00,79.1,74.6,30.08,NNE,14,6.0,8.0,86,0.00,,FEW,0.38,30.00,VWS V14.01,2013-07-18 16:24:00,
2013-07-18 12:26:00,78.8,74.6,30.08,East,82,9.0,9.0,87,0.00,,FEW,0.38,32.00,VWS V14.01,2013-07-18 16:26:00,
2013-07-18 12:28:00,78.6,74.4,30.08,East,81,1.0,12.0,87,0.00,,FEW,0.38,26.00,VWS V14.01,2013-07-18 16:28:00,
2013-07-18 12:29:00,78.5,74.3,30.08,ESE,123,5.0,12.0,87,0.00,,FEW,0.38,23.00,VWS V14.01,2013-07-18 16:29:00,
2013-07-18 12:31:00,78.4,74.2,30.08,NE,45,8.0,12.0,87,0.00,,FEW,0.38,23.00,VWS V14.01,2013-07-18 16:31:00,
2013-07-18 12:33:00,78.2,74.4,30.08,NE,49,6.0,10.0,88,0.00,,FEW,0.38,26.00,VWS V14.01,2013-07-18 16:33:00,
2013-07-18 12:34:00,78.1,74.3,30.08,NE,40,5.0,10.0,88,0.00,,FEW,0.38,23.00,VWS V14.01,2013-07-18 16:34:00,
2013-07-18 12:36:00,78.0,74.2,30.08,NE,40,5.0,10.0,88,0.00,,FEW,0.38,19.00,VWS V14.01,2013-07-18 16:36:00,
2013-07-18 12:38:00,78.1,74.6,30.08,NE,50,2.0,10.0,89,0.00,,FEW,0.38,21.00,VWS V14.01,2013-07-18 16:38:00,
2013-07-18 12:39:00,78.1,74.6,30.08,NE,48,2.0,10.0,89,0.00,,FEW,0.38,23.00,VWS V14.01,2013-07-18 16:39:00,
2013-07-18 12:40:00,78.1,74.6,30.08,ENE,64,5.0,10.0,89,0.01,,FEW,0.39,23.00,VWS V14.01,2013-07-18 16:40:00,
2013-07-18 12:41:00,78.0,74.5,30.08,ENE,67,2.0,10.0,89,0.01,,FEW,0.39,19.00,VWS V14.01,2013-07-18 16:41:00,
2013-07-18 12:43:00,77.9,74.4,30.08,ENE,67,4.0,4.0,89,0.01,,FEW,0.39,19.00,VWS V14.01,2013-07-18 16:43:00,
2013-07-18 12:44:00,77.9,74.4,30.08,East,81,6.0,6.0,89,0.02,,FEW,0.40,25.00,VWS V14.01,2013-07-18 16:44:00,
2013-07-18 12:45:00,77.8,74.3,30.08,NE,41,7.0,9.0,89,0.02,,FEW,0.40,30.00,VWS V14.01,2013-07-18 16:45:00,
2013-07-18 12:46:00,77.7,74.2,30.08,ENE,63,7.0,9.0,89,0.02,,FEW,0.40,33.00,VWS V14.01,2013-07-18 16:46:00,
2013-07-18 12:48:00,77.4,73.9,30.08,ENE,57,5.0,11.0,89,0.02,,FEW,0.40,30.00,VWS V14.01,2013-07-18 16:48:00,
2013-07-18 12:49:00,77.4,73.9,30.08,ENE,57,5.0,11.0,89,0.02,,FEW,0.40,30.00,VWS V14.01,2013-07-18 16:49:00,
2013-07-18 12:50:00,77.3,73.8,30.08,ENE,62,4.0,13.0,89,0.02,,FEW,0.40,23.00,VWS V14.01,2013-07-18 16:50:00,
2013-07-18 12:51:00,77.2,73.7,30.08,East,79,2.0,13.0,89,0.02,,FEW,0.40,21.00,VWS V14.01,2013-07-18 16:51:00,
2013-07-18 12:54:00,77.1,73.6,30.08,East,86,6.0,7.0,89,0.02,,FEW,0.40,25.00,VWS V14.01,2013-07-18 16:54:00,
2013-07-18 12:55:00,77.0,73.8,30.08,ENE,59,4.0,8.0,90,0.02,,FEW,0.40,26.00,VWS V14.01,2013-07-18 16:55:00,
2013-07-18 12:56:00,77.0,73.8,30.08,NE,44,2.0,8.0,90,0.02,,FEW,0.40,25.00,VWS V14.01,2013-07-18 16:56:00,
2013-07-18 12:59:00,77.0,73.8,30.08,East,101,3.0,9.0,90,0.02,,FEW,0.40,21.00,VWS V14.01,2013-07-18 16:59:00,
2013-07-18 13:00:00,77.0,73.8,30.08,ENE,57,5.0,9.0,90,0.02,,FEW,0.40,16.00,VWS V14.01,2013-07-18 17:00:00,
2013-07-18 13:01:00,77.0,74.2,30.10,ENE,66,5.0,9.0,91,0.03,,FEW,0.41,11.00,VWS V14.01,2013-07-18 17:01:00,
2013-07-18 13:04:00,77.0,74.2,30.10,NE,35,7.0,9.0,91,0.03,,FEW,0.41,11.00,VWS V14.01,2013-07-18 17:04:00,
2013-07-18 13:05:00,77.0,74.2,30.10,NE,53,3.0,9.0,91,0.03,,FEW,0.41,12.00,VWS V14.01,2013-07-18 17:05:00,
2013-07-18 13:06:00,77.0,74.2,30.10,NNE,30,5.0,9.0,91,0.03,,FEW,0.41,12.00,VWS V14.01,2013-07-18 17:06:00,
2013-07-18 13:09:00,76.6,73.4,30.10,NE,51,4.0,9.0,90,0.03,,FEW,0.41,11.00,VWS V14.01,2013-07-18 17:09:00,
2013-07-18 13:10:00,76.4,73.2,30.10,NE,43,5.0,10.0,90,0.04,,FEW,0.42,11.00,VWS V14.01,2013-07-18 17:10:00,
2013-07-18 13:11:00,76.1,73.0,30.10,East,90,5.0,10.0,90,0.04,,FEW,0.42,11.00,VWS V14.01,2013-07-18 17:11:00,
2013-07-18 13:12:00,75.9,72.8,30.10,ENE,57,3.0,6.0,90,0.04,,FEW,0.42,12.00,VWS V14.01,2013-07-18 17:12:00,
2013-07-18 13:14:00,75.7,72.6,30.10,SE,126,7.0,7.0,90,0.05,,FEW,0.43,14.00,VWS V14.01,2013-07-18 17:14:00,
2013-07-18 13:15:00,75.6,72.8,30.10,NE,52,4.0,7.0,91,0.05,,FEW,0.43,14.00,VWS V14.01,2013-07-18 17:15:00,
2013-07-18 13:16:00,75.5,72.7,30.10,NE,49,2.0,7.0,91,0.05,,FEW,0.43,12.00,VWS V14.01,2013-07-18 17:16:00,
2013-07-18 13:17:00,75.5,72.7,30.09,ENE,68,5.0,7.0,91,0.06,,FEW,0.44,11.00,VWS V14.01,2013-07-18 17:17:00,
2013-07-18 13:19:00,75.3,72.5,30.09,ENE,76,5.0,7.0,91,0.06,,FEW,0.44,9.00,VWS V14.01,2013-07-18 17:19:00,
2013-07-18 13:20:00,75.3,72.5,30.09,ENE,60,4.0,9.0,91,0.06,,FEW,0.44,9.00,VWS V14.01,2013-07-18 17:20:00,
2013-07-18 13:21:00,75.2,72.4,30.09,ENE,69,5.0,9.0,91,0.06,,FEW,0.44,11.00,VWS V14.01,2013-07-18 17:21:00,
2013-07-18 13:22:00,75.2,72.4,30.09,ENE,78,5.0,5.0,91,0.06,,FEW,0.44,11.00,VWS V14.01,2013-07-18 17:22:00,
2013-07-18 13:24:00,75.2,72.7,30.09,North,5,2.0,5.0,92,0.07,,FEW,0.45,12.00,VWS V14.01,2013-07-18 17:24:00,
2013-07-18 13:25:00,75.2,72.7,30.09,NNE,23,1.0,8.0,92,0.07,,FEW,0.45,19.00,VWS V14.01,2013-07-18 17:25:00,
2013-07-18 13:27:00,75.1,72.6,30.09,NE,36,8.0,9.0,92,0.07,,FEW,0.45,21.00,VWS V14.01,2013-07-18 17:27:00,
2013-07-18 13:29:00,75.2,72.7,30.09,NE,38,3.0,9.0,92,0.08,,FEW,0.46,12.00,VWS V14.01,2013-07-18 17:29:00,
2013-07-18 13:30:00,75.2,72.7,30.09,NE,39,2.0,9.0,92,0.08,,FEW,0.46,11.00,VWS V14.01,2013-07-18 17:30:00,
2013-07-18 13:32:00,75.2,72.7,30.08,NNE,33,3.0,9.0,92,0.08,,FEW,0.46,9.00,VWS V14.01,2013-07-18 17:32:00,
2013-07-18 13:33:00,75.2,72.7,30.08,NE,52,2.0,8.0,92,0.08,,FEW,0.46,9.00,VWS V14.01,2013-07-18 17:33:00,
2013-07-18 13:34:00,74.9,72.1,30.08,NE,40,3.0,10.0,91,0.08,,FEW,0.46,11.00,VWS V14.01,2013-07-18 17:34:00,
2013-07-18 13:35:00,74.8,72.0,30.08,NE,56,3.0,10.0,91,0.08,,FEW,0.46,11.00,VWS V14.01,2013-07-18 17:35:00,
2013-07-18 13:37:00,74.6,71.8,30.08,NE,42,3.0,10.0,91,0.08,,FEW,0.46,7.00,VWS V14.01,2013-07-18 17:37:00,
2013-07-18 13:38:00,74.5,71.7,30.08,NE,55,2.0,10.0,91,0.08,,FEW,0.46,5.00,VWS V14.01,2013-07-18 17:38:00,
2013-07-18 13:39:00,74.4,71.6,30.08,ENE,65,2.0,10.0,91,0.08,,FEW,0.46,0.00,VWS V14.01,2013-07-18 17:39:00,
2013-07-18 13:40:00,74.4,71.6,30.08,NE,49,2.0,10.0,91,0.08,,FEW,0.46,0.00,VWS V14.01,2013-07-18 17:40:00,
2013-07-18 13:42:00,74.3,71.5,30.08,NE,45,1.0,10.0,91,0.08,,FEW,0.46,0.00,VWS V14.01,2013-07-18 17:42:00,
2013-07-18 13:43:00,74.3,71.5,30.08,ESE,110,1.0,2.0,91,0.07,,FEW,0.46,0.00,VWS V14.01,2013-07-18 17:43:00,
2013-07-18 13:45:00,74.2,71.7,30.08,NE,40,2.0,3.0,92,0.07,,FEW,0.46,5.00,VWS V14.01,2013-07-18 17:45:00,
2013-07-18 13:47:00,74.2,71.7,30.11,NW,306,4.0,4.0,92,0.07,,FEW,0.46,0.00,VWS V14.01,2013-07-18 17:47:00,
2013-07-18 13:48:00,74.2,71.7,30.11,NW,308,4.0,5.0,92,0.08,,FEW,0.47,0.00,VWS V14.01,2013-07-18 17:48:00,
2013-07-18 13:50:00,74.3,71.8,30.11,NNW,346,7.0,7.0,92,0.08,,FEW,0.47,0.00,VWS V14.01,2013-07-18 17:50:00,
2013-07-18 13:52:00,74.5,72.0,30.11,WNW,303,9.0,15.0,92,0.08,,FEW,0.47,0.00,VWS V14.01,2013-07-18 17:52:00,
2013-07-18 13:53:00,74.6,72.4,30.11,NNW,331,11.0,20.0,93,0.08,,FEW,0.48,0.00,VWS V14.01,2013-07-18 17:53:00,
2013-07-18 13:55:00,74.8,72.6,30.11,NNE,14,7.0,20.0,93,0.09,,FEW,0.49,0.00,VWS V14.01,2013-07-18 17:55:00,
2013-07-18 13:57:00,74.9,72.7,30.11,North,355,8.0,20.0,93,0.10,,FEW,0.50,0.00,VWS V14.01,2013-07-18 17:57:00,
2013-07-18 13:58:00,74.9,72.7,30.11,WNW,290,12.0,20.0,93,0.11,,FEW,0.51,0.00,VWS V14.01,2013-07-18 17:58:00,
2013-07-18 14:00:00,74.9,72.7,30.11,WNW,295,9.0,20.0,93,0.12,,FEW,0.52,0.00,VWS V14.01,2013-07-18 18:00:00,
2013-07-18 14:03:00,74.7,72.6,30.10,West,281,16.0,19.0,93,0.13,,FEW,0.54,0.00,VWS V14.01,2013-07-18 18:03:00,
2013-07-18 14:04:00,74.6,72.4,30.10,NW,321,8.0,19.0,93,0.17,,FEW,0.58,0.00,VWS V14.01,2013-07-18 18:04:00,
2013-07-18 14:05:00,74.6,72.4,30.10,NNW,333,12.0,19.0,93,0.23,,FEW,0.64,0.00,VWS V14.01,2013-07-18 18:05:00,
2013-07-18 14:06:00,74.6,72.4,30.10,NW,313,10.0,19.0,93,0.26,,FEW,0.67,0.00,VWS V14.01,2013-07-18 18:06:00,
2013-07-18 14:08:00,74.5,72.3,30.10,NW,315,14.0,19.0,93,0.33,,FEW,0.74,0.00,VWS V14.01,2013-07-18 18:08:00,
2013-07-18 14:09:00,74.5,72.3,30.10,NW,311,5.0,19.0,93,0.39,,FEW,0.80,0.00,VWS V14.01,2013-07-18 18:09:00,
2013-07-18 14:10:00,74.4,72.2,30.10,NW,326,7.0,19.0,93,0.39,,FEW,0.80,0.00,VWS V14.01,2013-07-18 18:10:00,
2013-07-18 14:11:00,74.4,72.2,30.10,WSW,248,6.0,19.0,93,0.42,,FEW,0.83,0.00,VWS V14.01,2013-07-18 18:11:00,
2013-07-18 14:13:00,74.2,72.1,30.10,West,277,6.0,11.0,93,0.46,,FEW,0.88,0.00,VWS V14.01,2013-07-18 18:13:00,
2013-07-18 14:15:00,74.0,71.8,30.10,NW,307,6.0,11.0,93,0.55,,FEW,0.97,0.00,VWS V14.01,2013-07-18 18:15:00,
2013-07-18 15:29:00,72.2,70.7,30.07,NNE,28,4.0,10.0,95,0.73,,FEW,2.06,23.00,VWS V14.01,2013-07-18 19:29:00,
2013-07-18 15:30:00,72.3,71.1,30.07,NNE,24,3.0,10.0,96,0.73,,FEW,2.06,23.00,VWS V14.01,2013-07-18 19:30:00,
2013-07-18 15:34:00,72.3,70.8,30.05,NE,45,6.0,7.0,95,0.48,,FEW,2.06,26.00,VWS V14.01,2013-07-18 19:34:00,
2013-07-18 15:35:00,72.3,70.8,30.05,NNE,16,3.0,7.0,95,0.48,,FEW,2.06,28.00,VWS V14.01,2013-07-18 19:35:00,
2013-07-18 15:39:00,72.2,70.7,30.05,NE,44,3.0,11.0,95,0.48,,FEW,2.06,39.00,VWS V14.01,2013-07-18 19:39:00,
2013-07-18 15:40:00,72.2,70.7,30.05,NE,50,6.0,11.0,95,0.48,,FEW,2.06,39.00,VWS V14.01,2013-07-18 19:40:00,
2013-07-18 15:44:00,72.1,70.6,30.05,ENE,59,4.0,7.0,95,0.34,,FEW,2.06,56.00,VWS V14.01,2013-07-18 19:44:00,
2013-07-18 15:45:00,72.1,70.6,30.05,ENE,57,2.0,7.0,95,0.34,,FEW,2.06,56.00,VWS V14.01,2013-07-18 19:45:00,
2013-07-18 15:50:00,72.4,70.9,30.05,NE,41,3.0,7.0,95,0.34,,FEW,2.06,81.00,VWS V14.01,2013-07-18 19:50:00,
2013-07-18 15:51:00,72.5,71.0,30.05,NNE,14,5.0,7.0,95,0.34,,FEW,2.06,84.00,VWS V14.01,2013-07-18 19:51:00,
2013-07-18 15:55:00,72.6,71.1,30.05,NNE,27,4.0,7.0,95,0.17,,FEW,2.06,107.00,VWS V14.01,2013-07-18 19:55:00,
2013-07-18 15:56:00,72.6,71.1,30.05,NNE,26,6.0,7.0,95,0.17,,FEW,2.06,111.00,VWS V14.01,2013-07-18 19:56:00,
2013-07-18 16:00:00,72.7,71.2,30.05,NNE,25,3.0,7.0,95,0.17,,FEW,2.06,125.00,VWS V14.01,2013-07-18 20:00:00,
2013-07-18 16:01:00,72.7,71.2,30.05,NNE,19,4.0,7.0,95,0.17,,FEW,2.06,127.00,VWS V14.01,2013-07-18 20:01:00,
2013-07-18 16:05:00,73.0,71.5,30.04,NNE,23,2.0,5.0,95,0.06,,FEW,2.06,144.00,VWS V14.01,2013-07-18 20:05:00,
2013-07-18 16:06:00,73.0,71.5,30.04,NE,44,3.0,5.0,95,0.06,,FEW,2.06,144.00,VWS V14.01,2013-07-18 20:06:00,
2013-07-18 16:10:00,73.4,71.9,30.04,NNE,31,1.0,6.0,95,0.06,,FEW,2.06,149.00,VWS V14.01,2013-07-18 20:10:00,
2013-07-18 16:11:00,73.6,72.1,30.04,NE,42,3.0,6.0,95,0.06,,FEW,2.06,148.00,VWS V14.01,2013-07-18 20:11:00,
2013-07-18 16:15:00,73.9,72.4,30.04,NE,43,3.0,7.0,95,0.01,,FEW,2.06,149.00,VWS V14.01,2013-07-18 20:15:00,
2013-07-18 16:16:00,73.9,72.4,30.04,NE,34,5.0,7.0,95,0.01,,FEW,2.06,155.00,VWS V14.01,2013-07-18 20:16:00,
2013-07-18 16:20:00,74.2,72.7,30.04,NNE,30,1.0,7.0,95,0.01,,FEW,2.06,160.00,VWS V14.01,2013-07-18 20:20:00,
2013-07-18 16:21:00,74.3,72.8,30.04,NE,34,2.0,7.0,95,0.01,,FEW,2.06,160.00,VWS V14.01,2013-07-18 20:21:00,
2013-07-18 16:25:00,74.5,73.0,30.04,NE,34,3.0,7.0,95,0.00,,FEW,2.06,160.00,VWS V14.01,2013-07-18 20:25:00,
2013-07-18 16:26:00,74.6,73.1,30.04,NNE,27,3.0,7.0,95,0.00,,FEW,2.06,162.00,VWS V14.01,2013-07-18 20:26:00,
2013-07-18 16:30:00,74.9,73.4,30.04,NNE,18,4.0,7.0,95,0.00,,FEW,2.06,165.00,VWS V14.01,2013-07-18 20:30:00,
2013-07-18 16:31:00,74.9,73.4,30.04,NNE,28,1.0,7.0,95,0.00,,FEW,2.06,165.00,VWS V14.01,2013-07-18 20:31:00,
2013-07-18 16:32:00,74.9,73.1,30.04,NNE,25,2.0,7.0,94,0.00,,FEW,2.06,165.00,VWS V14.01,2013-07-18 20:32:00,
2013-07-18 16:35:00,74.9,73.1,30.04,NNE,30,2.0,7.0,94,0.00,,FEW,2.06,169.00,VWS V14.01,2013-07-18 20:35:00,
2013-07-18 16:36:00,74.9,73.1,30.04,NNE,33,4.0,7.0,94,0.00,,FEW,2.06,171.00,VWS V14.01,2013-07-18 20:36:00,
2013-07-18 16:37:00,74.9,73.1,30.04,NE,39,2.0,7.0,94,0.00,,FEW,2.06,174.00,VWS V14.01,2013-07-18 20:37:00,
2013-07-18 16:41:00,75.2,73.4,30.04,NNE,31,3.0,7.0,94,0.00,,FEW,2.06,176.00,VWS V14.01,2013-07-18 20:41:00,
2013-07-18 16:42:00,75.3,73.5,30.04,NNE,26,4.0,7.0,94,0.00,,FEW,2.06,176.00,VWS V14.01,2013-07-18 20:42:00,
2013-07-18 16:46:00,75.3,73.1,30.04,NE,36,2.0,9.0,93,0.00,,FEW,2.06,178.00,VWS V14.01,2013-07-18 20:46:00,
2013-07-18 16:47:00,75.3,73.1,30.05,NNE,28,5.0,9.0,93,0.00,,FEW,2.06,179.00,VWS V14.01,2013-07-18 20:47:00,
2013-07-18 16:48:00,75.3,73.1,30.05,NE,40,4.0,9.0,93,0.00,,FEW,2.06,181.00,VWS V14.01,2013-07-18 20:48:00,
2013-07-18 16:51:00,75.3,73.1,30.05,NNE,28,3.0,9.0,93,0.00,,FEW,2.06,178.00,VWS V14.01,2013-07-18 20:51:00,
2013-07-18 16:52:00,75.4,73.2,30.05,NE,34,3.0,9.0,93,0.00,,FEW,2.06,174.00,VWS V14.01,2013-07-18 20:52:00,
2013-07-18 16:53:00,75.5,73.3,30.05,NNE,21,3.0,6.0,93,0.00,,FEW,2.06,163.00,VWS V14.01,2013-07-18 20:53:00,
2013-07-18 16:56:00,75.7,73.5,30.05,NNE,26,7.0,7.0,93,0.00,,FEW,2.06,156.00,VWS V14.01,2013-07-18 20:56:00,
2013-07-18 16:57:00,75.7,73.2,30.05,NE,37,4.0,7.0,92,0.00,,FEW,2.06,156.00,VWS V14.01,2013-07-18 20:57:00,
2013-07-18 16:58:00,75.7,73.2,30.05,NNE,33,4.0,7.0,92,0.00,,FEW,2.06,155.00,VWS V14.01,2013-07-18 20:58:00,
2013-07-18 17:01:00,75.8,73.3,30.05,NNE,33,3.0,7.0,92,0.00,,FEW,2.06,151.00,VWS V14.01,2013-07-18 21:01:00,
2013-07-18 17:02:00,76.0,73.5,30.05,ENE,57,7.0,7.0,92,0.00,,FEW,2.06,148.00,VWS V14.01,2013-07-18 21:02:00,
2013-07-18 17:03:00,76.1,73.3,30.05,NNE,31,3.0,8.0,91,0.00,,FEW,2.06,146.00,VWS V14.01,2013-07-18 21:03:00,
2013-07-18 17:06:00,76.4,73.9,30.05,ENE,74,4.0,9.0,92,0.00,,FEW,2.06,137.00,VWS V14.01,2013-07-18 21:06:00,
2013-07-18 17:07:00,76.5,74.0,30.05,NE,54,3.0,9.0,92,0.00,,FEW,2.06,135.00,VWS V14.01,2013-07-18 21:07:00,
2013-07-18 17:08:00,76.7,73.9,30.05,NE,41,3.0,9.0,91,0.00,,FEW,2.06,134.00,VWS V14.01,2013-07-18 21:08:00,
2013-07-18 17:11:00,76.9,74.1,30.05,NNE,19,5.0,9.0,91,0.00,,FEW,2.06,134.00,VWS V14.01,2013-07-18 21:11:00,
2013-07-18 17:12:00,77.0,74.2,30.05,NE,46,8.0,9.0,91,0.00,,FEW,2.06,134.00,VWS V14.01,2013-07-18 21:12:00,
2013-07-18 17:14:00,77.2,74.4,30.05,NE,35,4.0,7.0,91,0.00,,FEW,2.06,134.00,VWS V14.01,2013-07-18 21:14:00,
2013-07-18 17:16:00,77.3,74.1,30.04,NE,35,3.0,7.0,90,0.00,,FEW,2.06,137.00,VWS V14.01,2013-07-18 21:16:00,
2013-07-18 17:17:00,77.4,74.2,30.04,NE,43,4.0,7.0,90,0.00,,FEW,2.06,137.00,VWS V14.01,2013-07-18 21:17:00,
2013-07-18 17:19:00,77.4,73.9,30.04,NE,38,5.0,8.0,89,0.00,,FEW,2.06,141.00,VWS V14.01,2013-07-18 21:19:00,
2013-07-18 17:21:00,77.5,74.0,30.04,NNE,22,5.0,8.0,89,0.00,,FEW,2.06,146.00,VWS V14.01,2013-07-18 21:21:00,
2013-07-18 17:22:00,77.5,74.0,30.04,NE,51,3.0,8.0,89,0.00,,FEW,2.06,149.00,VWS V14.01,2013-07-18 21:22:00,
2013-07-18 17:24:00,77.6,74.1,30.04,NE,36,4.0,8.0,89,0.00,,FEW,2.06,153.00,VWS V14.01,2013-07-18 21:24:00,
2013-07-18 17:26:00,77.7,74.2,30.04,NE,51,8.0,10.0,89,0.00,,FEW,2.06,156.00,VWS V14.01,2013-07-18 21:26:00,
2013-07-18 17:27:00,77.8,74.3,30.04,NE,51,3.0,10.0,89,0.00,,FEW,2.06,156.00,VWS V14.01,2013-07-18 21:27:00,
2013-07-18 17:28:00,77.8,74.3,30.04,NE,42,5.0,10.0,89,0.00,,FEW,2.06,156.00,VWS V14.01,2013-07-18 21:28:00,
2013-07-18 17:29:00,77.8,74.0,30.04,NNW,348,5.0,10.0,88,0.00,,FEW,2.06,158.00,VWS V14.01,2013-07-18 21:29:00,
2013-07-18 17:31:00,77.9,74.1,30.04,NE,39,8.0,10.0,88,0.00,,FEW,2.06,158.00,VWS V14.01,2013-07-18 21:31:00,
2013-07-18 17:33:00,78.0,74.2,30.04,NE,38,5.0,6.0,88,0.00,,FEW,2.06,156.00,VWS V14.01,2013-07-18 21:33:00,
2013-07-18 17:35:00,78.2,74.7,30.04,NE,48,9.0,9.0,89,0.00,,FEW,2.06,155.00,VWS V14.01,2013-07-18 21:35:00,
2013-07-18 17:36:00,78.3,74.8,30.04,East,79,5.0,10.0,89,0.00,,FEW,2.06,151.00,VWS V14.01,2013-07-18 21:36:00,
2013-07-18 17:38:00,78.3,74.8,30.04,NE,46,8.0,10.0,89,0.00,,FEW,2.06,148.00,VWS V14.01,2013-07-18 21:38:00,
2013-07-18 17:40:00,78.3,74.5,30.04,NE,40,4.0,10.0,88,0.00,,FEW,2.06,139.00,VWS V14.01,2013-07-18 21:40:00,
2013-07-18 17:41:00,78.2,74.4,30.04,NE,38,3.0,10.0,88,0.00,,FEW,2.06,134.00,VWS V14.01,2013-07-18 21:41:00,
2013-07-18 17:43:00,78.2,74.4,30.04,NNE,19,2.0,3.0,88,0.00,,FEW,2.06,130.00,VWS V14.01,2013-07-18 21:43:00,
2013-07-18 17:44:00,78.2,74.4,30.04,NE,41,6.0,6.0,88,0.00,,FEW,2.06,125.00,VWS V14.01,2013-07-18 21:44:00,
2013-07-18 17:45:00,78.2,74.4,30.04,NNE,20,5.0,7.0,88,0.00,,FEW,2.06,116.00,VWS V14.01,2013-07-18 21:45:00,
2013-07-18 17:46:00,78.3,74.5,30.05,NNE,30,2.0,8.0,88,0.00,,FEW,2.06,111.00,VWS V14.01,2013-07-18 21:46:00,
2013-07-18 17:48:00,78.3,74.5,30.05,NNE,19,3.0,8.0,88,0.00,,FEW,2.06,102.00,VWS V14.01,2013-07-18 21:48:00,
2013-07-18 17:49:00,78.4,74.6,30.05,NNE,33,7.0,8.0,88,0.00,,FEW,2.06,102.00,VWS V14.01,2013-07-18 21:49:00,
2013-07-18 17:50:00,78.4,74.9,30.05,NNE,30,1.0,8.0,89,0.00,,FEW,2.06,100.00,VWS V14.01,2013-07-18 21:50:00,
2013-07-18 17:51:00,78.4,74.9,30.05,NE,49,5.0,11.0,89,0.00,,FEW,2.06,95.00,VWS V14.01,2013-07-18 21:51:00,
2013-07-18 17:54:00,78.5,75.0,30.05,NE,38,5.0,7.0,89,0.00,,FEW,2.06,91.00,VWS V14.01,2013-07-18 21:54:00,
2013-07-18 17:55:00,78.5,75.0,30.05,NNE,18,4.0,8.0,89,0.00,,FEW,2.06,91.00,VWS V14.01,2013-07-18 21:55:00,
2013-07-18 17:57:00,78.6,75.1,30.05,NNE,32,4.0,9.0,89,0.00,,FEW,2.06,91.00,VWS V14.01,2013-07-18 21:57:00,
2013-07-18 17:59:00,78.7,75.2,30.05,North,360,4.0,9.0,89,0.00,,FEW,2.06,91.00,VWS V14.01,2013-07-18 21:59:00,
2013-07-18 18:00:00,78.7,75.2,30.05,North,5,2.0,9.0,89,0.00,,FEW,2.06,91.00,VWS V14.01,2013-07-18 22:00:00,
2013-07-18 18:02:00,78.7,75.2,30.05,NNE,20,2.0,10.0,89,0.00,,FEW,2.06,91.00,VWS V14.01,2013-07-18 22:02:00,
2013-07-18 18:04:00,78.7,75.2,30.05,NE,43,6.0,6.0,89,0.00,,FEW,2.06,81.00,VWS V14.01,2013-07-18 22:04:00,
2013-07-18 18:05:00,78.7,75.5,30.05,NE,34,7.0,8.0,90,0.00,,FEW,2.06,81.00,VWS V14.01,2013-07-18 22:05:00,
2013-07-18 18:07:00,78.7,75.5,30.05,NNE,27,6.0,9.0,90,0.00,,FEW,2.06,76.00,VWS V14.01,2013-07-18 22:07:00,
2013-07-18 18:09:00,78.6,75.4,30.05,NE,35,3.0,9.0,90,0.00,,FEW,2.06,77.00,VWS V14.01,2013-07-18 22:09:00,
2013-07-18 18:10:00,78.6,75.4,30.05,NNE,30,2.0,9.0,90,0.00,,FEW,2.06,77.00,VWS V14.01,2013-07-18 22:10:00,
2013-07-18 18:11:00,78.6,75.4,30.05,NE,37,4.0,9.0,90,0.00,,FEW,2.06,74.00,VWS V14.01,2013-07-18 22:11:00,
2013-07-18 18:12:00,78.6,75.4,30.05,NNE,19,3.0,9.0,90,0.00,,FEW,2.06,72.00,VWS V14.01,2013-07-18 22:12:00,
2013-07-18 18:14:00,78.6,75.4,30.05,NNE,33,7.0,10.0,90,0.00,,FEW,2.06,74.00,VWS V14.01,2013-07-18 22:14:00,
2013-07-18 18:15:00,78.6,75.4,30.05,NNE,30,3.0,10.0,90,0.00,,FEW,2.06,76.00,VWS V14.01,2013-07-18 22:15:00,
2013-07-18 18:16:00,78.6,75.4,30.05,NNE,24,4.0,10.0,90,0.00,,FEW,2.06,77.00,VWS V14.01,2013-07-18 22:16:00,
2013-07-18 18:17:00,78.6,75.4,30.05,NNE,22,2.0,10.0,90,0.00,,FEW,2.06,86.00,VWS V14.01,2013-07-18 22:17:00,
2013-07-18 18:19:00,78.5,75.3,30.05,NNE,17,7.0,10.0,90,0.00,,FEW,2.06,97.00,VWS V14.01,2013-07-18 22:19:00,
2013-07-18 18:20:00,78.5,75.3,30.05,NE,49,6.0,10.0,90,0.00,,FEW,2.06,97.00,VWS V14.01,2013-07-18 22:20:00,
2013-07-18 18:21:00,78.4,75.2,30.05,NNE,19,4.0,10.0,90,0.00,,FEW,2.06,100.00,VWS V14.01,2013-07-18 22:21:00,
2013-07-18 18:23:00,78.4,75.6,30.05,NNE,26,2.0,8.0,91,0.00,,FEW,2.06,102.00,VWS V14.01,2013-07-18 22:23:00,
2013-07-18 18:24:00,78.3,75.5,30.05,NE,36,3.0,8.0,91,0.00,,FEW,2.06,100.00,VWS V14.01,2013-07-18 22:24:00,
2013-07-18 18:25:00,78.4,75.6,30.05,NNE,15,9.0,9.0,91,0.00,,FEW,2.06,100.00,VWS V14.01,2013-07-18 22:25:00,
2013-07-18 18:26:00,78.3,75.5,30.05,NNE,12,3.0,10.0,91,0.00,,FEW,2.06,97.00,VWS V14.01,2013-07-18 22:26:00,
2013-07-18 18:28:00,78.2,75.4,30.05,NW,324,3.0,10.0,91,0.00,,FEW,2.06,91.00,VWS V14.01,2013-07-18 22:28:00,
2013-07-18 18:29:00,78.1,75.3,30.05,NE,45,6.0,10.0,91,0.00,,FEW,2.06,90.00,VWS V14.01,2013-07-18 22:29:00,
2013-07-18 18:30:00,78.1,75.3,30.05,North,11,5.0,10.0,91,0.00,,FEW,2.06,90.00,VWS V14.01,2013-07-18 22:30:00,
2013-07-18 18:31:00,78.1,75.3,30.05,NNE,15,5.0,10.0,91,0.00,,FEW,2.06,90.00,VWS V14.01,2013-07-18 22:31:00,
2013-07-18 18:33:00,78.0,75.2,30.05,North,9,5.0,7.0,91,0.00,,FEW,2.06,88.00,VWS V14.01,2013-07-18 22:33:00,
2013-07-18 18:34:00,77.9,74.7,30.05,NNE,32,3.0,8.0,90,0.00,,FEW,2.06,86.00,VWS V14.01,2013-07-18 22:34:00,
2013-07-18 18:35:00,77.8,74.6,30.05,NNE,33,3.0,8.0,90,0.00,,FEW,2.06,86.00,VWS V14.01,2013-07-18 22:35:00,
2013-07-18 18:36:00,77.8,74.6,30.05,NNE,24,1.0,8.0,90,0.00,,FEW,2.06,84.00,VWS V14.01,2013-07-18 22:36:00,
2013-07-18 18:38:00,77.7,74.5,30.05,NNE,29,5.0,8.0,90,0.00,,FEW,2.06,84.00,VWS V14.01,2013-07-18 22:38:00,
2013-07-18 18:40:00,77.6,74.4,30.05,NNE,28,5.0,9.0,90,0.00,,FEW,2.06,83.00,VWS V14.01,2013-07-18 22:40:00,
2013-07-18 18:41:00,77.5,74.3,30.05,NNE,30,4.0,9.0,90,0.00,,FEW,2.06,83.00,VWS V14.01,2013-07-18 22:41:00,
2013-07-18 18:44:00,77.5,74.3,30.05,NNE,24,3.0,6.0,90,0.00,,FEW,2.06,81.00,VWS V14.01,2013-07-18 22:44:00,
2013-07-18 18:45:00,77.5,74.3,30.05,NE,34,5.0,9.0,90,0.00,,FEW,2.06,79.00,VWS V14.01,2013-07-18 22:45:00,
2013-07-18 18:46:00,77.5,74.3,30.05,NE,38,4.0,9.0,90,0.00,,FEW,2.06,79.00,VWS V14.01,2013-07-18 22:46:00,
2013-07-18 18:49:00,77.5,74.3,30.05,NE,34,7.0,9.0,90,0.00,,FEW,2.06,74.00,VWS V14.01,2013-07-18 22:49:00,
2013-07-18 18:50:00,77.5,74.3,30.05,NE,49,2.0,9.0,90,0.00,,FEW,2.06,70.00,VWS V14.01,2013-07-18 22:50:00,
2013-07-18 18:51:00,77.5,74.3,30.05,NNE,25,3.0,9.0,90,0.00,,FEW,2.06,70.00,VWS V14.01,2013-07-18 22:51:00,
2013-07-18 18:54:00,77.6,74.4,30.05,NNE,27,3.0,6.0,90,0.00,,FEW,2.06,67.00,VWS V14.01,2013-07-18 22:54:00,
2013-07-18 18:55:00,77.6,74.4,30.05,NNE,18,3.0,6.0,90,0.00,,FEW,2.06,65.00,VWS V14.01,2013-07-18 22:55:00,
2013-07-18 18:56:00,77.6,74.4,30.05,NE,36,3.0,6.0,90,0.00,,FEW,2.06,65.00,VWS V14.01,2013-07-18 22:56:00,
2013-07-18 18:59:00,77.6,74.4,30.05,NE,46,5.0,9.0,90,0.00,,FEW,2.06,56.00,VWS V14.01,2013-07-18 22:59:00,
2013-07-18 19:00:00,77.7,74.5,30.05,NNE,19,3.0,9.0,90,0.00,,FEW,2.06,49.00,VWS V14.01,2013-07-18 23:00:00,
2013-07-18 19:01:00,77.7,74.5,30.05,North,355,4.0,9.0,90,0.00,,FEW,2.06,49.00,VWS V14.01,2013-07-18 23:01:00,
2013-07-18 19:04:00,77.6,74.4,30.05,NNE,13,1.0,8.0,90,0.00,,FEW,2.06,53.00,VWS V14.01,2013-07-18 23:04:00,
2013-07-18 19:06:00,77.6,74.4,30.05,NE,42,4.0,8.0,90,0.00,,FEW,2.06,49.00,VWS V14.01,2013-07-18 23:06:00,
2013-07-18 19:09:00,77.6,74.8,30.05,NE,50,8.0,8.0,91,0.00,,FEW,2.06,47.00,VWS V14.01,2013-07-18 23:09:00,
2013-07-18 19:11:00,77.6,74.8,30.05,NNE,16,5.0,8.0,91,0.00,,FEW,2.06,40.00,VWS V14.01,2013-07-18 23:11:00,
2013-07-18 19:12:00,77.6,74.8,30.05,NNE,15,4.0,8.0,91,0.00,,FEW,2.06,37.00,VWS V14.01,2013-07-18 23:12:00,
2013-07-18 19:14:00,77.6,74.8,30.05,North,11,6.0,9.0,91,0.00,,FEW,2.06,28.00,VWS V14.01,2013-07-18 23:14:00,
2013-07-18 19:16:00,77.5,74.7,30.05,North,5,7.0,9.0,91,0.00,,FEW,2.06,26.00,VWS V14.01,2013-07-18 23:16:00,
2013-07-18 19:17:00,77.5,74.7,30.05,NNE,33,5.0,9.0,91,0.00,,FEW,2.06,26.00,VWS V14.01,2013-07-18 23:17:00,
2013-07-18 19:19:00,77.5,74.7,30.05,NE,46,4.0,9.0,91,0.00,,FEW,2.06,28.00,VWS V14.01,2013-07-18 23:19:00,
2013-07-18 19:21:00,77.4,74.6,30.05,NE,36,3.0,9.0,91,0.00,,FEW,2.06,30.00,VWS V14.01,2013-07-18 23:21:00,
2013-07-18 19:22:00,77.3,74.5,30.05,North,360,6.0,9.0,91,0.00,,FEW,2.06,28.00,VWS V14.01,2013-07-18 23:22:00,
2013-07-18 19:25:00,77.2,74.4,30.05,NNW,344,5.0,7.0,91,0.00,,FEW,2.06,28.00,VWS V14.01,2013-07-18 23:25:00,
2013-07-18 19:26:00,77.1,74.3,30.05,NNE,32,3.0,7.0,91,0.00,,FEW,2.06,30.00,VWS V14.01,2013-07-18 23:26:00,
2013-07-18 19:27:00,77.1,74.3,30.05,NNE,30,3.0,8.0,91,0.00,,FEW,2.06,32.00,VWS V14.01,2013-07-18 23:27:00,
2013-07-18 19:30:00,77.1,74.3,30.05,NNE,28,3.0,8.0,91,0.00,,FEW,2.06,30.00,VWS V14.01,2013-07-18 23:30:00,
2013-07-18 19:31:00,77.1,74.3,30.05,North,360,2.0,8.0,91,0.00,,FEW,2.06,28.00,VWS V14.01,2013-07-18 23:31:00,
2013-07-18 19:32:00,77.1,74.3,30.06,NNE,19,4.0,9.0,91,0.00,,FEW,2.06,28.00,VWS V14.01,2013-07-18 23:32:00,
2013-07-18 19:33:00,77.0,73.8,30.06,North,11,5.0,8.0,90,0.00,,FEW,2.06,26.00,VWS V14.01,2013-07-18 23:33:00,
2013-07-18 19:35:00,76.8,73.7,30.06,NE,51,2.0,8.0,90,0.00,,FEW,2.06,23.00,VWS V14.01,2013-07-18 23:35:00,
2013-07-18 19:36:00,76.8,73.7,30.06,NNE,29,5.0,8.0,90,0.00,,FEW,2.06,19.00,VWS V14.01,2013-07-18 23:36:00,
2013-07-18 19:37:00,76.7,73.6,30.06,NNE,32,7.0,9.0,90,0.00,,FEW,2.06,18.00,VWS V14.01,2013-07-18 23:37:00,
2013-07-18 19:38:00,76.7,73.6,30.06,NNE,27,3.0,9.0,90,0.00,,FEW,2.06,18.00,VWS V14.01,2013-07-18 23:38:00,
2013-07-18 19:40:00,76.7,73.6,30.06,NNE,31,5.0,9.0,90,0.00,,FEW,2.06,18.00,VWS V14.01,2013-07-18 23:40:00,
2013-07-18 19:41:00,76.7,73.6,30.06,NE,47,1.0,9.0,90,0.00,,FEW,2.06,14.00,VWS V14.01,2013-07-18 23:41:00,
2013-07-18 19:42:00,76.7,73.6,30.06,NNE,25,6.0,9.0,90,0.00,,FEW,2.06,12.00,VWS V14.01,2013-07-18 23:42:00,
2013-07-18 19:43:00,76.7,73.6,30.06,NNE,17,2.0,5.0,90,0.00,,FEW,2.06,11.00,VWS V14.01,2013-07-18 23:43:00,
2013-07-18 19:45:00,76.7,73.6,30.06,NNW,348,5.0,5.0,90,0.00,,FEW,2.06,9.00,VWS V14.01,2013-07-18 23:45:00,
2013-07-18 19:46:00,76.8,74.0,30.06,North,11,4.0,7.0,91,0.00,,FEW,2.06,7.00,VWS V14.01,2013-07-18 23:46:00,
2013-07-18 19:47:00,76.8,74.0,30.06,NE,39,4.0,7.0,91,0.00,,FEW,2.06,7.00,VWS V14.01,2013-07-18 23:47:00,
2013-07-18 19:48:00,76.9,74.1,30.06,NE,34,4.0,7.0,91,0.00,,FEW,2.06,7.00,VWS V14.01,2013-07-18 23:48:00,
2013-07-18 19:50:00,76.9,73.8,30.06,NNE,22,5.0,7.0,90,0.00,,FEW,2.06,7.00,VWS V14.01,2013-07-18 23:50:00,
2013-07-18 19:51:00,76.9,73.8,30.06,NE,38,5.0,7.0,90,0.00,,FEW,2.06,7.00,VWS V14.01,2013-07-18 23:51:00,
2013-07-18 19:52:00,76.9,73.8,30.06,NE,37,4.0,7.0,90,0.00,,FEW,2.06,7.00,VWS V14.01,2013-07-18 23:52:00,
2013-07-18 19:53:00,76.8,73.7,30.06,NE,36,6.0,6.0,90,0.00,,FEW,2.06,7.00,VWS V14.01,2013-07-18 23:53:00,
2013-07-18 19:55:00,76.7,73.6,30.06,NNE,27,4.0,7.0,90,0.00,,FEW,2.06,5.00,VWS V14.01,2013-07-18 23:55:00,
2013-07-18 19:56:00,76.7,73.6,30.06,NNE,15,6.0,7.0,90,0.00,,FEW,2.06,5.00,VWS V14.01,2013-07-18 23:56:00,
2013-07-18 19:57:00,76.7,73.6,30.06,NNE,28,3.0,7.0,90,0.00,,FEW,2.06,5.00,VWS V14.01,2013-07-18 23:57:00,
2013-07-18 19:58:00,76.7,73.6,30.06,NE,36,2.0,7.0,90,0.00,,FEW,2.06,5.00,VWS V14.01,2013-07-18 23:58:00,
2013-07-18 20:00:00,76.7,73.6,30.06,NNE,15,4.0,8.0,90,0.00,,FEW,2.06,0.00,VWS V14.01,2013-07-19 00:00:00,
2013-07-18 20:02:00,76.6,73.4,30.05,NNE,24,3.0,8.0,90,0.00,,FEW,2.06,0.00,VWS V14.01,2013-07-19 00:02:00,
2013-07-18 20:03:00,76.6,73.4,30.05,NNE,22,2.0,6.0,90,0.00,,FEW,2.06,0.00,VWS V14.01,2013-07-19 00:03:00,
2013-07-18 20:05:00,76.6,73.4,30.05,NNE,24,6.0,7.0,90,0.00,,FEW,2.06,0.00,VWS V14.01,2013-07-19 00:05:00,
2013-07-18 20:07:00,76.6,73.4,30.05,NNE,18,2.0,8.0,90,0.00,,FEW,2.06,0.00,VWS V14.01,2013-07-19 00:07:00,
2013-07-18 20:09:00,76.7,73.9,30.05,NNE,26,5.0,8.0,91,0.00,,FEW,2.06,0.00,VWS V14.01,2013-07-19 00:09:00,
2013-07-18 20:11:00,76.8,74.0,30.05,NNE,23,2.0,8.0,91,0.00,,FEW,2.06,0.00,VWS V14.01,2013-07-19 00:11:00,
2013-07-18 20:12:00,76.8,74.0,30.05,NE,43,3.0,8.0,91,0.00,,FEW,2.06,0.00,VWS V14.01,2013-07-19 00:12:00,
2013-07-18 20:14:00,76.8,74.0,30.05,NNE,18,3.0,6.0,91,0.00,,FEW,2.06,0.00,VWS V14.01,2013-07-19 00:14:00,
2013-07-18 20:16:00,76.9,74.1,30.05,NE,36,3.0,9.0,91,0.00,,FEW,2.06,0.00,VWS V14.01,2013-07-19 00:16:00,
2013-07-18 20:17:00,76.9,74.1,30.05,North,5,6.0,9.0,91,0.00,,FEW,2.06,0.00,VWS V14.01,2013-07-19 00:17:00,
2013-07-18 20:18:00,76.9,74.1,30.05,NE,44,3.0,9.0,91,0.00,,FEW,2.06,0.00,VWS V14.01,2013-07-19 00:18:00,
2013-07-18 20:19:00,76.9,74.1,30.05,NNE,33,3.0,9.0,91,0.00,,FEW,2.06,0.00,VWS V14.01,2013-07-19 00:19:00,
2013-07-18 20:21:00,76.9,74.1,30.05,NNE,20,2.0,9.0,91,0.00,,FEW,2.06,0.00,VWS V14.01,2013-07-19 00:21:00,
2013-07-18 20:22:00,76.9,74.1,30.05,NNE,19,7.0,7.0,91,0.00,,FEW,2.06,0.00,VWS V14.01,2013-07-19 00:22:00,
2013-07-18 20:23:00,76.9,74.1,30.05,NE,36,2.0,7.0,91,0.00,,FEW,2.06,0.00,VWS V14.01,2013-07-19 00:23:00,
2013-07-18 20:24:00,76.9,74.1,30.05,NNE,15,5.0,11.0,91,0.00,,FEW,2.06,0.00,VWS V14.01,2013-07-19 00:24:00,
2013-07-18 20:27:00,76.9,74.1,30.05,NNE,30,4.0,11.0,91,0.00,,FEW,2.06,0.00,VWS V14.01,2013-07-19 00:27:00,
2013-07-18 20:28:00,77.0,74.2,30.05,NNE,28,3.0,11.0,91,0.00,,FEW,2.06,0.00,VWS V14.01,2013-07-19 00:28:00,
2013-07-18 20:29:00,77.0,74.2,30.05,NE,36,7.0,11.0,91,0.00,,FEW,2.06,0.00,VWS V14.01,2013-07-19 00:29:00,
2013-07-18 20:32:00,76.9,74.4,30.06,NNE,23,4.0,11.0,92,0.00,,FEW,2.06,0.00,VWS V14.01,2013-07-19 00:32:00,
2013-07-18 20:33:00,76.9,74.4,30.06,NE,40,3.0,6.0,92,0.00,,FEW,2.06,0.00,VWS V14.01,2013-07-19 00:33:00,
2013-07-18 20:34:00,76.9,74.4,30.06,NE,39,2.0,7.0,92,0.00,,FEW,2.06,0.00,VWS V14.01,2013-07-19 00:34:00,
2013-07-18 20:37:00,76.9,74.4,30.06,NE,36,6.0,9.0,92,0.00,,FEW,2.06,0.00,VWS V14.01,2013-07-19 00:37:00,
2013-07-18 20:38:00,76.9,74.4,30.06,NE,40,2.0,9.0,92,0.00,,FEW,2.06,0.00,VWS V14.01,2013-07-19 00:38:00,
2013-07-18 20:39:00,76.9,74.4,30.06,NE,40,4.0,9.0,92,0.00,,FEW,2.06,0.00,VWS V14.01,2013-07-19 00:39:00,
2013-07-18 20:42:00,76.9,74.4,30.06,NE,51,8.0,9.0,92,0.00,,FEW,2.06,0.00,VWS V14.01,2013-07-19 00:42:00,
2013-07-18 20:43:00,76.9,74.4,30.06,NE,47,2.0,7.0,92,0.00,,FEW,2.06,0.00,VWS V14.01,2013-07-19 00:43:00,
2013-07-18 20:44:00,76.9,74.4,30.06,NNE,30,4.0,9.0,92,0.00,,FEW,2.06,0.00,VWS V14.01,2013-07-19 00:44:00,
2013-07-18 20:47:00,76.9,74.4,30.05,NE,37,7.0,11.0,92,0.00,,FEW,2.06,0.00,VWS V14.01,2013-07-19 00:47:00,
2013-07-18 20:48:00,76.9,74.4,30.05,NNE,25,6.0,11.0,92,0.00,,FEW,2.06,0.00,VWS V14.01,2013-07-19 00:48:00,
2013-07-18 20:49:00,76.9,74.4,30.05,NE,49,4.0,11.0,92,0.00,,FEW,2.06,0.00,VWS V14.01,2013-07-19 00:49:00,
2013-07-18 20:52:00,76.9,74.4,30.05,NNE,26,7.0,7.0,92,0.00,,FEW,2.06,0.00,VWS V14.01,2013-07-19 00:52:00,
2013-07-18 20:53:00,76.9,74.4,30.05,NE,36,7.0,7.0,92,0.00,,FEW,2.06,0.00,VWS V14.01,2013-07-19 00:53:00,
2013-07-18 20:54:00,76.9,74.4,30.05,NNE,28,2.0,7.0,92,0.00,,FEW,2.06,0.00,VWS V14.01,2013-07-19 00:54:00,
2013-07-18 20:57:00,76.9,74.4,30.05,NE,47,3.0,8.0,92,0.00,,FEW,2.06,0.00,VWS V14.01,2013-07-19 00:57:00,
2013-07-18 20:58:00,76.9,74.4,30.05,NE,49,3.0,8.0,92,0.00,,FEW,2.06,0.00,VWS V14.01,2013-07-19 00:58:00,
2013-07-18 20:59:00,76.9,74.7,30.05,NNE,22,6.0,8.0,93,0.00,,FEW,2.06,0.00,VWS V14.01,2013-07-19 00:59:00,
2013-07-18 21:00:00,77.0,74.8,30.05,NNE,30,4.0,8.0,93,0.00,,FEW,2.06,0.00,VWS V14.01,2013-07-19 01:00:00,
2013-07-18 21:02:00,77.0,74.8,30.05,NE,41,2.0,8.0,93,0.00,,FEW,2.06,0.00,VWS V14.01,2013-07-19 01:02:00,
2013-07-18 21:03:00,77.0,74.8,30.05,East,82,3.0,4.0,93,0.00,,FEW,2.06,0.00,VWS V14.01,2013-07-19 01:03:00,
2013-07-18 21:04:00,77.0,74.8,30.05,NNE,14,3.0,4.0,93,0.00,,FEW,2.06,0.00,VWS V14.01,2013-07-19 01:04:00,
2013-07-18 21:05:00,77.0,74.8,30.05,NNE,30,4.0,4.0,93,0.00,,FEW,2.06,0.00,VWS V14.01,2013-07-19 01:05:00,
2013-07-18 21:07:00,77.1,74.9,30.05,NE,36,3.0,8.0,93,0.00,,FEW,2.06,0.00,VWS V14.01,2013-07-19 01:07:00,
2013-07-18 21:08:00,77.1,74.9,30.05,NE,42,3.0,8.0,93,0.00,,FEW,2.06,0.00,VWS V14.01,2013-07-19 01:08:00,
2013-07-18 21:09:00,77.1,74.9,30.05,ENE,61,4.0,8.0,93,0.00,,FEW,2.06,0.00,VWS V14.01,2013-07-19 01:09:00,
2013-07-18 21:10:00,77.1,74.9,30.05,NE,34,6.0,8.0,93,0.00,,FEW,2.06,0.00,VWS V14.01,2013-07-19 01:10:00,
2013-07-18 21:12:00,77.0,74.5,30.05,NNE,29,4.0,4.0,92,0.00,,FEW,2.06,0.00,VWS V14.01,2013-07-19 01:12:00,
2013-07-18 21:13:00,76.9,74.7,30.05,NE,44,2.0,5.0,93,0.00,,FEW,2.06,0.00,VWS V14.01,2013-07-19 01:13:00,
2013-07-18 21:14:00,76.9,74.7,30.05,NE,40,3.0,7.0,93,0.00,,FEW,2.06,0.00,VWS V14.01,2013-07-19 01:14:00,
2013-07-18 21:15:00,76.9,74.7,30.05,NE,52,7.0,7.0,93,0.00,,FEW,2.06,0.00,VWS V14.01,2013-07-19 01:15:00,
2013-07-18 21:17:00,76.9,74.4,30.06,NE,47,2.0,7.0,92,0.00,,FEW,2.06,0.00,VWS V14.01,2013-07-19 01:17:00,
2013-07-18 21:18:00,76.9,74.4,30.06,NE,49,2.0,7.0,92,0.00,,FEW,2.06,0.00,VWS V14.01,2013-07-19 01:18:00,
2013-07-18 21:19:00,76.9,74.7,30.06,NE,39,5.0,7.0,93,0.00,,FEW,2.06,0.00,VWS V14.01,2013-07-19 01:19:00,
2013-07-18 21:21:00,76.9,74.7,30.06,NE,40,3.0,7.0,93,0.00,,FEW,2.06,0.00,VWS V14.01,2013-07-19 01:21:00,
2013-07-18 21:22:00,76.9,74.4,30.06,NE,42,3.0,4.0,92,0.00,,FEW,2.06,0.00,VWS V14.01,2013-07-19 01:22:00,
2013-07-18 21:24:00,76.9,74.4,30.06,NE,34,4.0,5.0,92,0.00,,FEW,2.06,0.00,VWS V14.01,2013-07-19 01:24:00,
2013-07-18 21:26:00,76.9,74.4,30.06,NE,56,3.0,7.0,92,0.00,,FEW,2.06,0.00,VWS V14.01,2013-07-19 01:26:00,
2013-07-18 21:27:00,76.9,74.4,30.06,NE,36,4.0,7.0,92,0.00,,FEW,2.06,0.00,VWS V14.01,2013-07-19 01:27:00,
2013-07-18 21:29:00,76.9,74.4,30.06,NNE,26,2.0,7.0,92,0.00,,FEW,2.06,0.00,VWS V14.01,2013-07-19 01:29:00,
2013-07-18 21:31:00,76.9,74.4,30.06,NE,51,2.0,7.0,92,0.00,,FEW,2.06,0.00,VWS V14.01,2013-07-19 01:31:00,
2013-07-18 21:33:00,76.9,74.4,30.06,NE,34,5.0,5.0,92,0.00,,FEW,2.06,0.00,VWS V14.01,2013-07-19 01:33:00,
2013-07-18 21:34:00,76.9,74.4,30.06,NE,46,4.0,5.0,92,0.00,,FEW,2.06,0.00,VWS V14.01,2013-07-19 01:34:00,
2013-07-18 21:35:00,77.0,74.5,30.06,NE,36,2.0,5.0,92,0.00,,FEW,2.06,0.00,VWS V14.01,2013-07-19 01:35:00,
2013-07-18 21:36:00,76.9,74.4,30.06,NE,54,1.0,5.0,92,0.00,,FEW,2.06,0.00,VWS V14.01,2013-07-19 01:36:00,
2013-07-18 21:38:00,76.9,74.4,30.06,ENE,64,3.0,6.0,92,0.00,,FEW,2.06,0.00,VWS V14.01,2013-07-19 01:38:00,
2013-07-18 21:39:00,77.0,74.5,30.06,NE,46,5.0,6.0,92,0.00,,FEW,2.06,0.00,VWS V14.01,2013-07-19 01:39:00,
2013-07-18 21:40:00,76.9,74.4,30.06,ENE,60,1.0,6.0,92,0.00,,FEW,2.06,0.00,VWS V14.01,2013-07-19 01:40:00,
2013-07-18 21:41:00,77.0,74.5,30.06,NE,49,4.0,6.0,92,0.00,,FEW,2.06,0.00,VWS V14.01,2013-07-19 01:41:00,
2013-07-18 21:43:00,76.9,74.4,30.06,ENE,69,0.0,5.0,92,0.00,,FEW,2.06,0.00,VWS V14.01,2013-07-19 01:43:00,
2013-07-18 21:44:00,76.9,74.4,30.06,ENE,67,3.0,5.0,92,0.00,,FEW,2.06,0.00,VWS V14.01,2013-07-19 01:44:00,
2013-07-18 21:45:00,76.9,74.4,30.06,ENE,61,2.0,7.0,92,0.00,,FEW,2.06,0.00,VWS V14.01,2013-07-19 01:45:00,
2013-07-18 21:46:00,76.9,74.4,30.07,East,94,3.0,7.0,92,0.00,,FEW,2.06,0.00,VWS V14.01,2013-07-19 01:46:00,
2013-07-18 21:48:00,76.9,74.4,30.07,NNE,25,3.0,7.0,92,0.00,,FEW,2.06,0.00,VWS V14.01,2013-07-19 01:48:00,
2013-07-18 21:49:00,77.0,74.5,30.07,ENE,62,3.0,7.0,92,0.00,,FEW,2.06,0.00,VWS V14.01,2013-07-19 01:49:00,
2013-07-18 21:50:00,77.0,74.5,30.07,NE,54,2.0,7.0,92,0.00,,FEW,2.06,0.00,VWS V14.01,2013-07-19 01:50:00,
2013-07-18 21:51:00,76.9,74.4,30.07,NE,48,2.0,7.0,92,0.00,,FEW,2.06,0.00,VWS V14.01,2013-07-19 01:51:00,
2013-07-18 21:53:00,77.0,74.5,30.07,NE,46,1.0,5.0,92,0.00,,FEW,2.06,0.00,VWS V14.01,2013-07-19 01:53:00,
2013-07-18 21:54:00,77.0,74.5,30.07,ENE,57,1.0,5.0,92,0.00,,FEW,2.06,0.00,VWS V14.01,2013-07-19 01:54:00,
2013-07-18 21:55:00,77.0,74.5,30.07,ENE,69,4.0,5.0,92,0.00,,FEW,2.06,0.00,VWS V14.01,2013-07-19 01:55:00,
2013-07-18 21:56:00,77.0,74.5,30.07,NNE,33,4.0,6.0,92,0.00,,FEW,2.06,0.00,VWS V14.01,2013-07-19 01:56:00,
2013-07-18 21:58:00,77.1,74.6,30.07,NNE,27,2.0,6.0,92,0.00,,FEW,2.06,0.00,VWS V14.01,2013-07-19 01:58:00,
2013-07-18 21:59:00,77.1,74.6,30.07,East,87,3.0,6.0,92,0.00,,FEW,2.06,0.00,VWS V14.01,2013-07-19 01:59:00,
2013-07-18 22:00:00,77.1,74.6,30.07,ENE,71,3.0,6.0,92,0.00,,FEW,2.06,0.00,VWS V14.01,2013-07-19 02:00:00,
2013-07-18 22:01:00,77.1,74.6,30.07,NE,34,1.0,6.0,92,0.00,,FEW,2.06,0.00,VWS V14.01,2013-07-19 02:01:00,
2013-07-18 22:04:00,77.0,74.5,30.07,NE,37,2.0,5.0,92,0.00,,FEW,2.06,0.00,VWS V14.01,2013-07-19 02:04:00,
2013-07-18 22:05:00,77.1,74.6,30.07,NE,55,0.0,5.0,92,0.00,,FEW,2.06,0.00,VWS V14.01,2013-07-19 02:05:00,
2013-07-18 22:06:00,77.1,74.6,30.07,East,84,1.0,5.0,92,0.00,,FEW,2.06,0.00,VWS V14.01,2013-07-19 02:06:00,
2013-07-18 22:09:00,77.0,74.5,30.07,ENE,59,3.0,5.0,92,0.00,,FEW,2.06,0.00,VWS V14.01,2013-07-19 02:09:00,
2013-07-18 22:10:00,77.0,74.5,30.07,NE,49,1.0,5.0,92,0.00,,FEW,2.06,0.00,VWS V14.01,2013-07-19 02:10:00,
2013-07-18 22:11:00,77.0,74.5,30.07,NE,49,0.0,5.0,92,0.00,,FEW,2.06,0.00,VWS V14.01,2013-07-19 02:11:00,
2013-07-18 22:14:00,77.0,74.5,30.07,ENE,66,3.0,3.0,92,0.00,,FEW,2.06,0.00,VWS V14.01,2013-07-19 02:14:00,
2013-07-18 22:15:00,77.0,74.5,30.07,East,94,5.0,5.0,92,0.00,,FEW,2.06,0.00,VWS V14.01,2013-07-19 02:15:00,
2013-07-18 22:16:00,77.0,74.5,30.07,ENE,78,1.0,5.0,92,0.00,,FEW,2.06,0.00,VWS V14.01,2013-07-19 02:16:00,
2013-07-18 22:17:00,77.0,74.5,30.07,ENE,61,0.0,5.0,92,0.00,,FEW,2.06,0.00,VWS V14.01,2013-07-19 02:17:00,
2013-07-18 22:19:00,77.0,74.5,30.07,ENE,59,0.0,5.0,92,0.00,,FEW,2.06,0.00,VWS V14.01,2013-07-19 02:19:00,
2013-07-18 22:20:00,77.0,74.5,30.07,ENE,76,0.0,5.0,92,0.00,,FEW,2.06,0.00,VWS V14.01,2013-07-19 02:20:00,
2013-07-18 22:21:00,77.0,74.5,30.07,ENE,77,0.0,5.0,92,0.00,,FEW,2.06,0.00,VWS V14.01,2013-07-19 02:21:00,
2013-07-18 22:22:00,77.0,74.5,30.07,NE,53,1.0,5.0,92,0.00,,FEW,2.06,0.00,VWS V14.01,2013-07-19 02:22:00,
2013-07-18 22:24:00,77.0,74.5,30.07,ENE,57,0.0,3.0,92,0.00,,FEW,2.06,0.00,VWS V14.01,2013-07-19 02:24:00,
2013-07-18 22:25:00,77.0,74.5,30.07,ENE,62,1.0,4.0,92,0.00,,FEW,2.06,0.00,VWS V14.01,2013-07-19 02:25:00,
2013-07-18 22:26:00,76.9,74.4,30.07,ENE,65,1.0,6.0,92,0.00,,FEW,2.06,0.00,VWS V14.01,2013-07-19 02:26:00,
2013-07-18 22:27:00,77.0,74.5,30.07,ENE,64,2.0,6.0,92,0.00,,FEW,2.06,0.00,VWS V14.01,2013-07-19 02:27:00,
2013-07-18 22:29:00,76.9,74.4,30.07,NE,52,1.0,6.0,92,0.00,,FEW,2.06,0.00,VWS V14.01,2013-07-19 02:29:00,
2013-07-18 22:30:00,76.9,74.4,30.07,ENE,59,2.0,6.0,92,0.00,,FEW,2.06,0.00,VWS V14.01,2013-07-19 02:30:00,
2013-07-18 22:31:00,77.0,74.5,30.07,NE,53,2.0,6.0,92,0.00,,FEW,2.06,0.00,VWS V14.01,2013-07-19 02:31:00,
2013-07-18 22:32:00,76.9,74.4,30.07,ENE,70,0.0,6.0,92,0.00,,FEW,2.06,0.00,VWS V14.01,2013-07-19 02:32:00,
2013-07-18 22:34:00,77.0,74.5,30.07,NE,36,2.0,4.0,92,0.00,,FEW,2.06,0.00,VWS V14.01,2013-07-19 02:34:00,
2013-07-18 22:35:00,77.0,74.5,30.07,ENE,58,0.0,4.0,92,0.00,,FEW,2.06,0.00,VWS V14.01,2013-07-19 02:35:00,
2013-07-18 22:36:00,77.0,74.5,30.07,NE,50,4.0,4.0,92,0.00,,FEW,2.06,0.00,VWS V14.01,2013-07-19 02:36:00,
2013-07-18 22:37:00,77.0,74.5,30.07,ENE,74,2.0,4.0,92,0.00,,FEW,2.06,0.00,VWS V14.01,2013-07-19 02:37:00,
2013-07-18 22:39:00,77.0,74.5,30.07,ENE,68,1.0,5.0,92,0.00,,FEW,2.06,0.00,VWS V14.01,2013-07-19 02:39:00,
2013-07-18 22:40:00,77.0,74.5,30.07,NE,44,2.0,5.0,92,0.00,,FEW,2.06,0.00,VWS V14.01,2013-07-19 02:40:00,
2013-07-18 22:41:00,77.0,74.5,30.07,NE,48,1.0,5.0,92,0.00,,FEW,2.06,0.00,VWS V14.01,2013-07-19 02:41:00,
2013-07-18 22:42:00,77.0,74.5,30.07,NE,38,1.0,1.0,92,0.00,,FEW,2.06,0.00,VWS V14.01,2013-07-19 02:42:00,
2013-07-18 22:45:00,77.1,74.6,30.07,NE,48,2.0,7.0,92,0.00,,FEW,2.06,0.00,VWS V14.01,2013-07-19 02:45:00,
2013-07-18 22:46:00,77.1,74.6,30.07,ENE,64,1.0,7.0,92,0.00,,FEW,2.06,0.00,VWS V14.01,2013-07-19 02:46:00,
2013-07-18 22:47:00,77.1,74.6,30.06,ENE,66,2.0,7.0,92,0.00,,FEW,2.06,0.00,VWS V14.01,2013-07-19 02:47:00,
2013-07-18 22:50:00,77.1,74.6,30.06,ENE,67,1.0,7.0,92,0.00,,FEW,2.06,0.00,VWS V14.01,2013-07-19 02:50:00,
2013-07-18 22:51:00,77.1,74.6,30.06,NE,40,3.0,7.0,92,0.00,,FEW,2.06,0.00,VWS V14.01,2013-07-19 02:51:00,
2013-07-18 22:53:00,77.1,74.6,30.06,NNE,27,2.0,5.0,92,0.00,,FEW,2.06,0.00,VWS V14.01,2013-07-19 02:53:00,
2013-07-18 22:55:00,77.1,74.6,30.06,ENE,60,1.0,5.0,92,0.00,,FEW,2.06,0.00,VWS V14.01,2013-07-19 02:55:00,
2013-07-18 22:56:00,77.1,74.6,30.06,East,84,2.0,5.0,92,0.00,,FEW,2.06,0.00,VWS V14.01,2013-07-19 02:56:00,
2013-07-18 22:58:00,77.1,74.6,30.06,ENE,73,3.0,5.0,92,0.00,,FEW,2.06,0.00,VWS V14.01,2013-07-19 02:58:00,
2013-07-18 23:01:00,77.1,74.6,30.06,NE,38,1.0,7.0,92,0.00,,FEW,2.06,0.00,VWS V14.01,2013-07-19 03:01:00,
2013-07-18 23:03:00,77.0,74.5,30.06,NE,51,3.0,3.0,92,0.00,,FEW,2.06,0.00,VWS V14.01,2013-07-19 03:03:00,
2013-07-18 23:06:00,77.0,74.5,30.06,East,88,1.0,3.0,92,0.00,,FEW,2.06,0.00,VWS V14.01,2013-07-19 03:06:00,
2013-07-18 23:08:00,76.9,74.4,30.06,East,90,1.0,5.0,92,0.00,,FEW,2.06,0.00,VWS V14.01,2013-07-19 03:08:00,
2013-07-18 23:11:00,76.9,74.4,30.06,ENE,77,0.0,5.0,92,0.00,,FEW,2.06,0.00,VWS V14.01,2013-07-19 03:11:00,
2013-07-18 23:14:00,76.9,74.7,30.06,East,93,1.0,3.0,93,0.00,,FEW,2.06,0.00,VWS V14.01,2013-07-19 03:14:00,
2013-07-18 23:16:00,76.9,74.7,30.06,NE,53,2.0,3.0,93,0.00,,FEW,2.06,0.00,VWS V14.01,2013-07-19 03:16:00,
2013-07-18 23:17:00,76.9,74.7,30.06,East,89,0.0,3.0,93,0.00,,FEW,2.06,0.00,VWS V14.01,2013-07-19 03:17:00,
2013-07-18 23:19:00,76.8,74.6,30.06,NNE,17,1.0,4.0,93,0.00,,FEW,2.06,0.00,VWS V14.01,2013-07-19 03:19:00,
2013-07-18 23:21:00,76.8,74.6,30.06,ENE,61,0.0,4.0,93,0.00,,FEW,2.06,0.00,VWS V14.01,2013-07-19 03:21:00,
2013-07-18 23:22:00,76.8,74.6,30.06,ESE,107,1.0,4.0,93,0.00,,FEW,2.06,0.00,VWS V14.01,2013-07-19 03:22:00,
2013-07-18 23:24:00,76.8,74.6,30.06,ENE,62,2.0,3.0,93,0.00,,FEW,2.06,0.00,VWS V14.01,2013-07-19 03:24:00,
2013-07-18 23:26:00,76.8,74.6,30.06,NE,52,1.0,5.0,93,0.00,,FEW,2.06,0.00,VWS V14.01,2013-07-19 03:26:00,
2013-07-18 23:27:00,76.8,74.6,30.06,NE,53,5.0,5.0,93,0.00,,FEW,2.06,0.00,VWS V14.01,2013-07-19 03:27:00,
2013-07-18 23:29:00,76.8,74.6,30.06,ENE,66,2.0,6.0,93,0.00,,FEW,2.06,0.00,VWS V14.01,2013-07-19 03:29:00,
2013-07-18 23:31:00,76.8,74.6,30.06,ENE,65,0.0,6.0,93,0.00,,FEW,2.06,0.00,VWS V14.01,2013-07-19 03:31:00,
2013-07-18 23:32:00,76.8,74.6,30.07,ENE,67,2.0,6.0,93,0.00,,FEW,2.06,0.00,VWS V14.01,2013-07-19 03:32:00,
2013-07-18 23:34:00,76.8,74.6,30.07,ENE,71,1.0,2.0,93,0.00,,FEW,2.06,0.00,VWS V14.01,2013-07-19 03:34:00,
2013-07-18 23:36:00,76.8,74.6,30.07,NE,55,1.0,5.0,93,0.00,,FEW,2.06,0.00,VWS V14.01,2013-07-19 03:36:00,
2013-07-18 23:37:00,76.8,74.6,30.07,NE,55,0.0,5.0,93,0.00,,FEW,2.06,0.00,VWS V14.01,2013-07-19 03:37:00,
2013-07-18 23:39:00,76.9,74.7,30.07,ENE,59,1.0,5.0,93,0.00,,FEW,2.06,0.00,VWS V14.01,2013-07-19 03:39:00,
2013-07-18 23:41:00,76.9,74.7,30.07,NE,53,1.0,5.0,93,0.00,,FEW,2.06,0.00,VWS V14.01,2013-07-19 03:41:00,
2013-07-18 23:42:00,76.9,74.7,30.07,NE,53,0.0,0.0,93,0.00,,FEW,2.06,0.00,VWS V14.01,2013-07-19 03:42:00,
2013-07-18 23:43:00,76.9,74.7,30.07,NE,51,1.0,3.0,93,0.00,,FEW,2.06,0.00,VWS V14.01,2013-07-19 03:43:00,
2013-07-18 23:44:00,76.9,74.7,30.07,NE,51,1.0,3.0,93,0.00,,FEW,2.06,0.00,VWS V14.01,2013-07-19 03:44:00,
2013-07-18 23:47:00,77.0,74.8,30.07,NE,51,0.0,3.0,93,0.00,,FEW,2.06,0.00,VWS V14.01,2013-07-19 03:47:00,
2013-07-18 23:48:00,76.9,74.7,30.07,NE,53,1.0,3.0,93,0.00,,FEW,2.06,0.00,VWS V14.01,2013-07-19 03:48:00,
2013-07-18 23:49:00,77.0,74.8,30.07,ENE,64,1.0,3.0,93,0.00,,FEW,2.06,0.00,VWS V14.01,2013-07-19 03:49:00,
2013-07-18 23:52:00,77.0,74.8,30.07,ENE,57,3.0,6.0,93,0.00,,FEW,2.06,0.00,VWS V14.01,2013-07-19 03:52:00,
2013-07-18 23:53:00,77.0,74.8,30.07,ENE,62,2.0,2.0,93,0.00,,FEW,2.06,0.00,VWS V14.01,2013-07-19 03:53:00,
2013-07-18 23:54:00,77.1,74.9,30.07,ENE,59,2.0,3.0,93,0.00,,FEW,2.06,0.00,VWS V14.01,2013-07-19 03:54:00,
2013-07-18 23:57:00,77.1,74.9,30.07,ENE,69,0.0,3.0,93,0.00,,FEW,2.06,0.00,VWS V14.01,2013-07-19 03:57:00,
2013-07-18 23:58:00,77.2,75.0,30.07,NE,52,0.0,3.0,93,0.00,,FEW,2.06,0.00,VWS V14.01,2013-07-19 03:58:00,